<?xml version="1.0" encoding="UTF-8"?>
<gpx version="1.1" creator="2bulu-scraper" xmlns="http://www.topografix.com/GPX/1/1">
  <metadata><name>合江法王寺龙卦山环线</name><desc>source: 2bulu.com trackId=82946780; exported 2026-09-01T14:48:22.235Z</desc>
    <bounds minlat="28.6555377" minlon="105.6479971" maxlat="28.6758868" maxlon="105.674114"/>
    <link href="https://www.2bulu.com/track/t-j05od1j3q%252BPp%252FR2KBg5Tzw%253D%253D.htm"><text>2bulu 源页面</text></link>
  </metadata>
  <wpt lat="28.6757283" lon="105.6702033"><ele>275</ele><name>
        </name></wpt>
  <wpt lat="28.6737437" lon="105.6581968"><ele>352</ele><name>
        </name></wpt>
  <wpt lat="28.6737437" lon="105.6581968"><ele>352</ele><name>
        </name></wpt>
  <wpt lat="28.6717397" lon="105.6566992"><ele>358</ele><name>
        </name></wpt>
  <wpt lat="28.671568" lon="105.6553983"><ele>358</ele><name>
        </name></wpt>
  <wpt lat="28.6711742" lon="105.6549898"><ele>365</ele><name>
        </name></wpt>
  <wpt lat="28.6707793" lon="105.6548908"><ele>397</ele><name>
        </name></wpt>
  <wpt lat="28.6705598" lon="105.6542517"><ele>418</ele><name>
        </name></wpt>
  <wpt lat="28.6691977" lon="105.6522481"><ele>505</ele><name>
        </name></wpt>
  <wpt lat="28.6692243" lon="105.651822"><ele>514</ele><name>
        </name></wpt>
  <wpt lat="28.668695" lon="105.6493957"><ele>552</ele><name>左转
        </name></wpt>
  <wpt lat="28.668695" lon="105.6493957"><ele>552</ele><name>
        </name></wpt>
  <wpt lat="28.6683097" lon="105.6492874"><ele>561</ele><name>
        </name></wpt>
  <wpt lat="28.665917" lon="105.650877"><ele>726</ele><name>
        </name></wpt>
  <wpt lat="28.6649226" lon="105.6564275"><ele>741</ele><name>
        </name></wpt>
  <wpt lat="28.6619012" lon="105.6564179"><ele>708</ele><name>
        </name></wpt>
  <wpt lat="28.6586267" lon="105.655415"><ele>632</ele><name>
        </name></wpt>
  <wpt lat="28.6577817" lon="105.6548467"><ele>618</ele><name>
        </name></wpt>
  <wpt lat="28.6595687" lon="105.6587164"><ele>627</ele><name>
        </name></wpt>
  <wpt lat="28.6606762" lon="105.658307"><ele>648</ele><name>
        </name></wpt>
  <wpt lat="28.6605658" lon="105.6579801"><ele>643</ele><name>
        </name></wpt>
  <wpt lat="28.6626396" lon="105.6577985"><ele>681</ele><name>
        </name></wpt>
  <wpt lat="28.662987" lon="105.6576774"><ele>680</ele><name>
        </name></wpt>
  <wpt lat="28.6631888" lon="105.6575482"><ele>693</ele><name>
        </name></wpt>
  <wpt lat="28.6631888" lon="105.6575482"><ele>693</ele><name>
        </name></wpt>
  <wpt lat="28.6655956" lon="105.6575483"><ele>747</ele><name>
        </name></wpt>
  <wpt lat="28.6625446" lon="105.6637086"><ele>731</ele><name>
        </name></wpt>
  <wpt lat="28.6607731" lon="105.6654869"><ele>717</ele><name>
        </name></wpt>
  <wpt lat="28.66246" lon="105.6673733"><ele>543</ele><name>
        </name></wpt>
  <wpt lat="28.6637872" lon="105.6697224"><ele>419</ele><name>
        </name></wpt>
  <wpt lat="28.6716669" lon="105.6731718"><ele>280</ele><name>
        </name></wpt>
  <trk><name>合江法王寺龙卦山环线</name>
      <trkseg>
        <trkpt lat="28.6756109" lon="105.6701842"><ele>275.8</ele><time>2026-04-24T17:21:09.000Z</time></trkpt>
        <trkpt lat="28.675705" lon="105.6701617"><ele>275.8</ele><time>2026-04-24T17:25:09.000Z</time></trkpt>
        <trkpt lat="28.6756883" lon="105.670045"><ele>274.12</ele><time>2026-04-24T17:28:43.000Z</time></trkpt>
        <trkpt lat="28.6756733" lon="105.6699367"><ele>274.76</ele><time>2026-04-24T17:28:53.000Z</time></trkpt>
        <trkpt lat="28.6756499" lon="105.6698312"><ele>275.94</ele><time>2026-04-24T17:29:03.000Z</time></trkpt>
        <trkpt lat="28.675612" lon="105.6697236"><ele>276.57</ele><time>2026-04-24T17:29:13.000Z</time></trkpt>
        <trkpt lat="28.6755684" lon="105.6696279"><ele>276.8</ele><time>2026-04-24T17:29:21.000Z</time></trkpt>
        <trkpt lat="28.6755095" lon="105.6695303"><ele>276.02</ele><time>2026-04-24T17:29:31.000Z</time></trkpt>
        <trkpt lat="28.6754433" lon="105.6694389"><ele>275.41</ele><time>2026-04-24T17:29:41.000Z</time></trkpt>
        <trkpt lat="28.6753856" lon="105.669347"><ele>274.89</ele><time>2026-04-24T17:29:49.000Z</time></trkpt>
        <trkpt lat="28.675306" lon="105.6692658"><ele>274.25</ele><time>2026-04-24T17:29:59.000Z</time></trkpt>
        <trkpt lat="28.6752309" lon="105.6691769"><ele>274.27</ele><time>2026-04-24T17:30:09.000Z</time></trkpt>
        <trkpt lat="28.6751925" lon="105.6690671"><ele>274.5</ele><time>2026-04-24T17:30:19.000Z</time></trkpt>
        <trkpt lat="28.6751755" lon="105.6689546"><ele>273.98</ele><time>2026-04-24T17:30:29.000Z</time></trkpt>
        <trkpt lat="28.6751696" lon="105.6688461"><ele>273.09</ele><time>2026-04-24T17:30:37.000Z</time></trkpt>
        <trkpt lat="28.6751667" lon="105.6687299"><ele>272.32</ele><time>2026-04-24T17:30:47.000Z</time></trkpt>
        <trkpt lat="28.6751671" lon="105.6686109"><ele>271.92</ele><time>2026-04-24T17:31:09.000Z</time></trkpt>
        <trkpt lat="28.6751663" lon="105.6684815"><ele>271.05</ele><time>2026-04-24T17:31:19.000Z</time></trkpt>
        <trkpt lat="28.675108" lon="105.6683963"><ele>270.69</ele><time>2026-04-24T17:31:31.000Z</time></trkpt>
        <trkpt lat="28.6750621" lon="105.6682967"><ele>270.69</ele><time>2026-04-24T17:31:47.000Z</time></trkpt>
        <trkpt lat="28.6750037" lon="105.6681974"><ele>270.57</ele><time>2026-04-24T17:31:57.000Z</time></trkpt>
        <trkpt lat="28.6749591" lon="105.6680966"><ele>270.54</ele><time>2026-04-24T17:32:09.000Z</time></trkpt>
        <trkpt lat="28.6749045" lon="105.6679977"><ele>271.12</ele><time>2026-04-24T17:32:19.000Z</time></trkpt>
        <trkpt lat="28.6748536" lon="105.6678944"><ele>271.54</ele><time>2026-04-24T17:32:29.000Z</time></trkpt>
        <trkpt lat="28.6748083" lon="105.6677995"><ele>272.21</ele><time>2026-04-24T17:32:39.000Z</time></trkpt>
        <trkpt lat="28.6747688" lon="105.6676877"><ele>272.81</ele><time>2026-04-24T17:32:49.000Z</time></trkpt>
        <trkpt lat="28.6747588" lon="105.6675732"><ele>272.89</ele><time>2026-04-24T17:33:01.000Z</time></trkpt>
        <trkpt lat="28.674764" lon="105.6674635"><ele>271.95</ele><time>2026-04-24T17:33:15.000Z</time></trkpt>
        <trkpt lat="28.6748117" lon="105.6673598"><ele>271.2</ele><time>2026-04-24T17:33:25.000Z</time></trkpt>
        <trkpt lat="28.6748444" lon="105.6672545"><ele>270.21</ele><time>2026-04-24T17:33:35.000Z</time></trkpt>
        <trkpt lat="28.6748508" lon="105.6671446"><ele>269.34</ele><time>2026-04-24T17:33:47.000Z</time></trkpt>
        <trkpt lat="28.6748541" lon="105.6670304"><ele>267.73</ele><time>2026-04-24T17:33:55.000Z</time></trkpt>
        <trkpt lat="28.674866" lon="105.6669161"><ele>266.73</ele><time>2026-04-24T17:34:05.000Z</time></trkpt>
        <trkpt lat="28.674888" lon="105.6667997"><ele>266.59</ele><time>2026-04-24T17:34:15.000Z</time></trkpt>
        <trkpt lat="28.6749022" lon="105.6666801"><ele>267.07</ele><time>2026-04-24T17:34:25.000Z</time></trkpt>
        <trkpt lat="28.6749043" lon="105.6665633"><ele>267.64</ele><time>2026-04-24T17:34:35.000Z</time></trkpt>
        <trkpt lat="28.6748633" lon="105.6664604"><ele>268.48</ele><time>2026-04-24T17:34:47.000Z</time></trkpt>
        <trkpt lat="28.6747858" lon="105.6663751"><ele>269.82</ele><time>2026-04-24T17:34:59.000Z</time></trkpt>
        <trkpt lat="28.6747179" lon="105.6662816"><ele>271.06</ele><time>2026-04-24T17:35:09.000Z</time></trkpt>
        <trkpt lat="28.6746694" lon="105.6661726"><ele>272.11</ele><time>2026-04-24T17:35:19.000Z</time></trkpt>
        <trkpt lat="28.6746795" lon="105.6660651"><ele>273.22</ele><time>2026-04-24T17:35:29.000Z</time></trkpt>
        <trkpt lat="28.6746967" lon="105.6659551"><ele>274.59</ele><time>2026-04-24T17:35:43.000Z</time></trkpt>
        <trkpt lat="28.6746869" lon="105.6658507"><ele>276.62</ele><time>2026-04-24T17:35:53.000Z</time></trkpt>
        <trkpt lat="28.6746512" lon="105.665745"><ele>278.42</ele><time>2026-04-24T17:36:03.000Z</time></trkpt>
        <trkpt lat="28.6746027" lon="105.6656536"><ele>279.96</ele><time>2026-04-24T17:36:15.000Z</time></trkpt>
        <trkpt lat="28.6745773" lon="105.6655561"><ele>281.31</ele><time>2026-04-24T17:36:23.000Z</time></trkpt>
        <trkpt lat="28.6745957" lon="105.6654482"><ele>282.04</ele><time>2026-04-24T17:36:35.000Z</time></trkpt>
        <trkpt lat="28.674651" lon="105.6653501"><ele>282.32</ele><time>2026-04-24T17:36:45.000Z</time></trkpt>
        <trkpt lat="28.6747008" lon="105.6652574"><ele>282.31</ele><time>2026-04-24T17:36:57.000Z</time></trkpt>
        <trkpt lat="28.674754" lon="105.6651689"><ele>282.82</ele><time>2026-04-24T17:37:15.000Z</time></trkpt>
        <trkpt lat="28.6747493" lon="105.665069"><ele>283.72</ele><time>2026-04-24T17:37:27.000Z</time></trkpt>
        <trkpt lat="28.6747538" lon="105.6649669"><ele>285.3</ele><time>2026-04-24T17:37:43.000Z</time></trkpt>
        <trkpt lat="28.6747555" lon="105.6648582"><ele>286.85</ele><time>2026-04-24T17:37:59.000Z</time></trkpt>
        <trkpt lat="28.674747" lon="105.6647487"><ele>288.42</ele><time>2026-04-24T17:38:47.000Z</time></trkpt>
        <trkpt lat="28.6747456" lon="105.6646418"><ele>290.09</ele><time>2026-04-24T17:39:15.000Z</time></trkpt>
        <trkpt lat="28.67475" lon="105.6645351"><ele>292.12</ele><time>2026-04-24T17:39:31.000Z</time></trkpt>
        <trkpt lat="28.6747529" lon="105.6644246"><ele>293.96</ele><time>2026-04-24T17:39:45.000Z</time></trkpt>
        <trkpt lat="28.6747476" lon="105.6643078"><ele>295.91</ele><time>2026-04-24T17:40:05.000Z</time></trkpt>
        <trkpt lat="28.674734" lon="105.6641976"><ele>297.37</ele><time>2026-04-24T17:40:27.000Z</time></trkpt>
        <trkpt lat="28.6747505" lon="105.6640916"><ele>299.62</ele><time>2026-04-24T17:40:45.000Z</time></trkpt>
        <trkpt lat="28.6747824" lon="105.6639869"><ele>301.63</ele><time>2026-04-24T17:40:59.000Z</time></trkpt>
        <trkpt lat="28.6748124" lon="105.6638775"><ele>303.6</ele><time>2026-04-24T17:41:13.000Z</time></trkpt>
        <trkpt lat="28.6748702" lon="105.6637949"><ele>305.53</ele><time>2026-04-24T17:41:33.000Z</time></trkpt>
        <trkpt lat="28.6749174" lon="105.663706"><ele>306.81</ele><time>2026-04-24T17:41:55.000Z</time></trkpt>
        <trkpt lat="28.6749651" lon="105.663612"><ele>307.45</ele><time>2026-04-24T17:42:15.000Z</time></trkpt>
        <trkpt lat="28.6750326" lon="105.6635422"><ele>308.16</ele><time>2026-04-24T17:42:31.000Z</time></trkpt>
        <trkpt lat="28.6750858" lon="105.6634525"><ele>309.64</ele><time>2026-04-24T17:42:45.000Z</time></trkpt>
        <trkpt lat="28.6751" lon="105.6633504"><ele>311.95</ele><time>2026-04-24T17:43:03.000Z</time></trkpt>
        <trkpt lat="28.6751189" lon="105.6632304"><ele>314.38</ele><time>2026-04-24T17:43:23.000Z</time></trkpt>
        <trkpt lat="28.6751554" lon="105.6631299"><ele>316.71</ele><time>2026-04-24T17:43:53.000Z</time></trkpt>
        <trkpt lat="28.6752106" lon="105.6630467"><ele>318.04</ele><time>2026-04-24T17:44:25.000Z</time></trkpt>
        <trkpt lat="28.6752847" lon="105.6629682"><ele>320.13</ele><time>2026-04-24T17:44:41.000Z</time></trkpt>
        <trkpt lat="28.6753706" lon="105.6629255"><ele>321.84</ele><time>2026-04-24T17:44:53.000Z</time></trkpt>
        <trkpt lat="28.6754541" lon="105.6628811"><ele>323.07</ele><time>2026-04-24T17:45:07.000Z</time></trkpt>
        <trkpt lat="28.675544" lon="105.6628952"><ele>324.16</ele><time>2026-04-24T17:45:29.000Z</time></trkpt>
        <trkpt lat="28.6756292" lon="105.662868"><ele>326.07</ele><time>2026-04-24T17:45:43.000Z</time></trkpt>
        <trkpt lat="28.6756983" lon="105.6628044"><ele>328.4</ele><time>2026-04-24T17:45:55.000Z</time></trkpt>
        <trkpt lat="28.67575" lon="105.662714"><ele>330.9</ele><time>2026-04-24T17:46:07.000Z</time></trkpt>
        <trkpt lat="28.6757912" lon="105.6626134"><ele>333.14</ele><time>2026-04-24T17:46:25.000Z</time></trkpt>
        <trkpt lat="28.6758488" lon="105.6625191"><ele>333.89</ele><time>2026-04-24T17:46:41.000Z</time></trkpt>
        <trkpt lat="28.6758823" lon="105.6624191"><ele>333.9</ele><time>2026-04-24T17:46:53.000Z</time></trkpt>
        <trkpt lat="28.6758868" lon="105.6623151"><ele>334.16</ele><time>2026-04-24T17:47:07.000Z</time></trkpt>
        <trkpt lat="28.6758594" lon="105.6622117"><ele>333.87</ele><time>2026-04-24T17:47:23.000Z</time></trkpt>
        <trkpt lat="28.6758313" lon="105.6621052"><ele>333.41</ele><time>2026-04-24T17:47:37.000Z</time></trkpt>
        <trkpt lat="28.6757758" lon="105.6620055"><ele>333.28</ele><time>2026-04-24T17:47:49.000Z</time></trkpt>
        <trkpt lat="28.6757245" lon="105.6619135"><ele>333.33</ele><time>2026-04-24T17:48:03.000Z</time></trkpt>
        <trkpt lat="28.6756444" lon="105.6618379"><ele>333.49</ele><time>2026-04-24T17:48:21.000Z</time></trkpt>
        <trkpt lat="28.6755875" lon="105.6617452"><ele>333.92</ele><time>2026-04-24T17:48:37.000Z</time></trkpt>
        <trkpt lat="28.6755235" lon="105.6616576"><ele>334.6</ele><time>2026-04-24T17:48:57.000Z</time></trkpt>
        <trkpt lat="28.6754569" lon="105.6615773"><ele>336.62</ele><time>2026-04-24T17:49:13.000Z</time></trkpt>
        <trkpt lat="28.6753833" lon="105.6615019"><ele>338.46</ele><time>2026-04-24T17:49:29.000Z</time></trkpt>
        <trkpt lat="28.6753" lon="105.6614354"><ele>340.63</ele><time>2026-04-24T17:49:43.000Z</time></trkpt>
        <trkpt lat="28.6752111" lon="105.6613641"><ele>343.63</ele><time>2026-04-24T17:49:55.000Z</time></trkpt>
        <trkpt lat="28.6751612" lon="105.6612753"><ele>346.41</ele><time>2026-04-24T17:50:15.000Z</time></trkpt>
        <trkpt lat="28.6751136" lon="105.6611725"><ele>349.16</ele><time>2026-04-24T17:50:25.000Z</time></trkpt>
        <trkpt lat="28.6750602" lon="105.6610754"><ele>351.07</ele><time>2026-04-24T17:50:39.000Z</time></trkpt>
        <trkpt lat="28.6750136" lon="105.6609741"><ele>353.32</ele><time>2026-04-24T17:50:53.000Z</time></trkpt>
        <trkpt lat="28.6749568" lon="105.6608705"><ele>355.55</ele><time>2026-04-24T17:51:05.000Z</time></trkpt>
        <trkpt lat="28.6748907" lon="105.6607888"><ele>358.11</ele><time>2026-04-24T17:51:17.000Z</time></trkpt>
        <trkpt lat="28.674824" lon="105.6607081"><ele>361.07</ele><time>2026-04-24T17:51:31.000Z</time></trkpt>
        <trkpt lat="28.6747552" lon="105.6606367"><ele>363.92</ele><time>2026-04-24T17:51:43.000Z</time></trkpt>
        <trkpt lat="28.6746573" lon="105.6605981"><ele>366.24</ele><time>2026-04-24T17:51:53.000Z</time></trkpt>
        <trkpt lat="28.6745591" lon="105.6605771"><ele>367.3</ele><time>2026-04-24T17:52:07.000Z</time></trkpt>
        <trkpt lat="28.6744563" lon="105.6605501"><ele>367.21</ele><time>2026-04-24T17:52:19.000Z</time></trkpt>
        <trkpt lat="28.6743665" lon="105.66051"><ele>366.91</ele><time>2026-04-24T17:52:29.000Z</time></trkpt>
        <trkpt lat="28.6742859" lon="105.6604506"><ele>365.7</ele><time>2026-04-24T17:52:39.000Z</time></trkpt>
        <trkpt lat="28.674236" lon="105.6603481"><ele>364.15</ele><time>2026-04-24T17:52:51.000Z</time></trkpt>
        <trkpt lat="28.6742029" lon="105.6602411"><ele>363.96</ele><time>2026-04-24T17:53:01.000Z</time></trkpt>
        <trkpt lat="28.6741952" lon="105.6601317"><ele>364.41</ele><time>2026-04-24T17:53:09.000Z</time></trkpt>
        <trkpt lat="28.6741985" lon="105.660017"><ele>364.32</ele><time>2026-04-24T17:53:17.000Z</time></trkpt>
        <trkpt lat="28.6742184" lon="105.6599165"><ele>363.84</ele><time>2026-04-24T17:53:29.000Z</time></trkpt>
        <trkpt lat="28.6742562" lon="105.6598057"><ele>362.01</ele><time>2026-04-24T17:53:45.000Z</time></trkpt>
        <trkpt lat="28.6742687" lon="105.6596947"><ele>360.37</ele><time>2026-04-24T17:53:55.000Z</time></trkpt>
        <trkpt lat="28.6742385" lon="105.6595802"><ele>358.32</ele><time>2026-04-24T17:54:07.000Z</time></trkpt>
        <trkpt lat="28.6741968" lon="105.6594684"><ele>356.25</ele><time>2026-04-24T17:54:31.000Z</time></trkpt>
        <trkpt lat="28.6741923" lon="105.6593467"><ele>355.02</ele><time>2026-04-24T17:54:41.000Z</time></trkpt>
        <trkpt lat="28.6741733" lon="105.6592376"><ele>354.15</ele><time>2026-04-24T17:54:49.000Z</time></trkpt>
        <trkpt lat="28.6740991" lon="105.6591775"><ele>353.74</ele><time>2026-04-24T17:54:57.000Z</time></trkpt>
        <trkpt lat="28.6740076" lon="105.6592088"><ele>353.17</ele><time>2026-04-24T17:55:09.000Z</time></trkpt>
        <trkpt lat="28.6739128" lon="105.6592668"><ele>354.08</ele><time>2026-04-24T17:55:17.000Z</time></trkpt>
        <trkpt lat="28.6738033" lon="105.6592855"><ele>354.69</ele><time>2026-04-24T17:55:29.000Z</time></trkpt>
        <trkpt lat="28.6736961" lon="105.6592774"><ele>355.04</ele><time>2026-04-24T17:55:39.000Z</time></trkpt>
        <trkpt lat="28.6736041" lon="105.6592339"><ele>355.37</ele><time>2026-04-24T17:55:49.000Z</time></trkpt>
        <trkpt lat="28.6735583" lon="105.659135"><ele>355.81</ele><time>2026-04-24T17:55:59.000Z</time></trkpt>
        <trkpt lat="28.6735566" lon="105.6590121"><ele>355.55</ele><time>2026-04-24T17:56:11.000Z</time></trkpt>
        <trkpt lat="28.6735869" lon="105.6588873"><ele>356.9</ele><time>2026-04-24T17:56:23.000Z</time></trkpt>
        <trkpt lat="28.6736227" lon="105.6587668"><ele>357.38</ele><time>2026-04-24T17:56:35.000Z</time></trkpt>
        <trkpt lat="28.6736728" lon="105.6586524"><ele>357.6</ele><time>2026-04-24T17:56:47.000Z</time></trkpt>
        <trkpt lat="28.6737159" lon="105.658536"><ele>357.04</ele><time>2026-04-24T17:56:59.000Z</time></trkpt>
        <trkpt lat="28.6737593" lon="105.6584303"><ele>355.99</ele><time>2026-04-24T17:57:13.000Z</time></trkpt>
        <trkpt lat="28.673811" lon="105.6583425"><ele>355.01</ele><time>2026-04-24T17:57:25.000Z</time></trkpt>
        <trkpt lat="28.6738215" lon="105.6582419"><ele>355</ele><time>2026-04-24T17:57:37.000Z</time></trkpt>
        <trkpt lat="28.6737437" lon="105.6581968"><ele>354.14</ele><time>2026-04-24T17:57:51.000Z</time></trkpt>
        <trkpt lat="28.6736493" lon="105.6581594"><ele>353.26</ele><time>2026-04-24T17:58:13.000Z</time></trkpt>
        <trkpt lat="28.6735446" lon="105.6581131"><ele>353.02</ele><time>2026-04-24T17:58:21.000Z</time></trkpt>
        <trkpt lat="28.6734427" lon="105.6580916"><ele>352.58</ele><time>2026-04-24T17:58:29.000Z</time></trkpt>
        <trkpt lat="28.6733633" lon="105.6581499"><ele>351.99</ele><time>2026-04-24T17:58:39.000Z</time></trkpt>
        <trkpt lat="28.6732784" lon="105.6582257"><ele>351.48</ele><time>2026-04-24T17:59:03.000Z</time></trkpt>
        <trkpt lat="28.6731909" lon="105.6582813"><ele>350.93</ele><time>2026-04-24T17:59:13.000Z</time></trkpt>
        <trkpt lat="28.6730874" lon="105.6583121"><ele>350.14</ele><time>2026-04-24T17:59:23.000Z</time></trkpt>
        <trkpt lat="28.6730083" lon="105.6582514"><ele>349.95</ele><time>2026-04-24T17:59:35.000Z</time></trkpt>
        <trkpt lat="28.6729316" lon="105.6581784"><ele>349.84</ele><time>2026-04-24T17:59:47.000Z</time></trkpt>
        <trkpt lat="28.6728536" lon="105.658105"><ele>350.13</ele><time>2026-04-24T17:59:57.000Z</time></trkpt>
        <trkpt lat="28.6727646" lon="105.6580475"><ele>350.72</ele><time>2026-04-24T18:00:07.000Z</time></trkpt>
        <trkpt lat="28.6726638" lon="105.6580593"><ele>351.14</ele><time>2026-04-24T18:00:19.000Z</time></trkpt>
        <trkpt lat="28.6725729" lon="105.658045"><ele>351.64</ele><time>2026-04-24T18:00:31.000Z</time></trkpt>
        <trkpt lat="28.6725016" lon="105.6579838"><ele>352.27</ele><time>2026-04-24T18:00:43.000Z</time></trkpt>
        <trkpt lat="28.6724399" lon="105.6579011"><ele>352.63</ele><time>2026-04-24T18:00:57.000Z</time></trkpt>
        <trkpt lat="28.6723656" lon="105.6578228"><ele>353.26</ele><time>2026-04-24T18:01:07.000Z</time></trkpt>
        <trkpt lat="28.6723093" lon="105.6577348"><ele>353.49</ele><time>2026-04-24T18:01:19.000Z</time></trkpt>
        <trkpt lat="28.672261" lon="105.6576443"><ele>353.28</ele><time>2026-04-24T18:01:29.000Z</time></trkpt>
        <trkpt lat="28.6723049" lon="105.6575602"><ele>353.29</ele><time>2026-04-24T18:01:41.000Z</time></trkpt>
        <trkpt lat="28.6723301" lon="105.6574578"><ele>353.12</ele><time>2026-04-24T18:01:51.000Z</time></trkpt>
        <trkpt lat="28.672358" lon="105.6573337"><ele>352.85</ele><time>2026-04-24T18:02:03.000Z</time></trkpt>
        <trkpt lat="28.6723949" lon="105.6572166"><ele>351.67</ele><time>2026-04-24T18:02:15.000Z</time></trkpt>
        <trkpt lat="28.6723589" lon="105.6571262"><ele>351.3</ele><time>2026-04-24T18:02:27.000Z</time></trkpt>
        <trkpt lat="28.6722676" lon="105.6570887"><ele>351.34</ele><time>2026-04-24T18:02:49.000Z</time></trkpt>
        <trkpt lat="28.6721632" lon="105.6570756"><ele>352.4</ele><time>2026-04-24T18:03:05.000Z</time></trkpt>
        <trkpt lat="28.6720701" lon="105.6570266"><ele>354.03</ele><time>2026-04-24T18:03:21.000Z</time></trkpt>
        <trkpt lat="28.6719757" lon="105.6570051"><ele>355.44</ele><time>2026-04-24T18:03:33.000Z</time></trkpt>
        <trkpt lat="28.6718832" lon="105.6569901"><ele>356.54</ele><time>2026-04-24T18:03:45.000Z</time></trkpt>
        <trkpt lat="28.6718183" lon="105.6569098"><ele>357.34</ele><time>2026-04-24T18:03:55.000Z</time></trkpt>
        <trkpt lat="28.6717788" lon="105.6568108"><ele>357.58</ele><time>2026-04-24T18:04:05.000Z</time></trkpt>
        <trkpt lat="28.6717397" lon="105.6566992"><ele>358.11</ele><time>2026-04-24T18:04:19.000Z</time></trkpt>
        <trkpt lat="28.67174" lon="105.6565882"><ele>358.1</ele><time>2026-04-24T18:04:31.000Z</time></trkpt>
        <trkpt lat="28.6717697" lon="105.6564819"><ele>358.49</ele><time>2026-04-24T18:04:43.000Z</time></trkpt>
        <trkpt lat="28.6717574" lon="105.6563771"><ele>358.15</ele><time>2026-04-24T18:04:53.000Z</time></trkpt>
        <trkpt lat="28.6717053" lon="105.6562921"><ele>357.18</ele><time>2026-04-24T18:05:07.000Z</time></trkpt>
        <trkpt lat="28.6716657" lon="105.6561967"><ele>355.56</ele><time>2026-04-24T18:05:17.000Z</time></trkpt>
        <trkpt lat="28.6716757" lon="105.6560891"><ele>354.24</ele><time>2026-04-24T18:05:29.000Z</time></trkpt>
        <trkpt lat="28.6716995" lon="105.655982"><ele>353.71</ele><time>2026-04-24T18:05:41.000Z</time></trkpt>
        <trkpt lat="28.671746" lon="105.6558808"><ele>354.05</ele><time>2026-04-24T18:05:51.000Z</time></trkpt>
        <trkpt lat="28.6717613" lon="105.6557758"><ele>354.2</ele><time>2026-04-24T18:06:01.000Z</time></trkpt>
        <trkpt lat="28.6717315" lon="105.6556805"><ele>354.63</ele><time>2026-04-24T18:06:13.000Z</time></trkpt>
        <trkpt lat="28.6716807" lon="105.6555814"><ele>355.35</ele><time>2026-04-24T18:06:25.000Z</time></trkpt>
        <trkpt lat="28.67164" lon="105.6554755"><ele>355.76</ele><time>2026-04-24T18:06:39.000Z</time></trkpt>
        <trkpt lat="28.671568" lon="105.6553983"><ele>356.12</ele><time>2026-04-24T18:06:51.000Z</time></trkpt>
        <trkpt lat="28.6715042" lon="105.6553157"><ele>356.97</ele><time>2026-04-24T18:07:13.000Z</time></trkpt>
        <trkpt lat="28.671428" lon="105.6552548"><ele>360</ele><time>2026-04-24T18:07:25.000Z</time></trkpt>
        <trkpt lat="28.6714018" lon="105.6551537"><ele>362.45</ele><time>2026-04-24T18:07:47.000Z</time></trkpt>
        <trkpt lat="28.6713361" lon="105.6550679"><ele>364.32</ele><time>2026-04-24T18:08:01.000Z</time></trkpt>
        <trkpt lat="28.671265" lon="105.6549941"><ele>364.96</ele><time>2026-04-24T18:08:11.000Z</time></trkpt>
        <trkpt lat="28.6711742" lon="105.6549898"><ele>364.42</ele><time>2026-04-24T18:08:29.000Z</time></trkpt>
        <trkpt lat="28.6710745" lon="105.6550302"><ele>364.8</ele><time>2026-04-24T18:09:17.000Z</time></trkpt>
        <trkpt lat="28.6709756" lon="105.6550627"><ele>367.08</ele><time>2026-04-24T18:09:43.000Z</time></trkpt>
        <trkpt lat="28.6708845" lon="105.6550438"><ele>369.54</ele><time>2026-04-24T18:10:33.000Z</time></trkpt>
        <trkpt lat="28.6708608" lon="105.6549515"><ele>372.49</ele><time>2026-04-24T18:11:07.000Z</time></trkpt>
        <trkpt lat="28.6708152" lon="105.6548492"><ele>378.6</ele><time>2026-04-24T18:11:29.000Z</time></trkpt>
        <trkpt lat="28.6707793" lon="105.6548908"><ele>384.58</ele><time>2026-04-24T18:11:55.000Z</time></trkpt>
        <trkpt lat="28.6707267" lon="105.6547933"><ele>389.71</ele><time>2026-04-24T18:13:17.000Z</time></trkpt>
        <trkpt lat="28.6707233" lon="105.654675"><ele>396.2</ele><time>2026-04-24T18:13:29.000Z</time></trkpt>
        <trkpt lat="28.6707271" lon="105.6545679"><ele>400.16</ele><time>2026-04-24T18:13:47.000Z</time></trkpt>
        <trkpt lat="28.6706613" lon="105.6545156"><ele>403.44</ele><time>2026-04-24T18:14:05.000Z</time></trkpt>
        <trkpt lat="28.6706402" lon="105.6544303"><ele>406.57</ele><time>2026-04-24T18:14:23.000Z</time></trkpt>
        <trkpt lat="28.6706186" lon="105.6543326"><ele>408.65</ele><time>2026-04-24T18:14:49.000Z</time></trkpt>
        <trkpt lat="28.6705598" lon="105.6542517"><ele>411.16</ele><time>2026-04-24T18:15:01.000Z</time></trkpt>
        <trkpt lat="28.670455" lon="105.6542217"><ele>414.23</ele><time>2026-04-24T18:16:07.000Z</time></trkpt>
        <trkpt lat="28.670375" lon="105.6541717"><ele>418.78</ele><time>2026-04-24T18:16:55.000Z</time></trkpt>
        <trkpt lat="28.6702879" lon="105.6541851"><ele>423.86</ele><time>2026-04-24T18:17:47.000Z</time></trkpt>
        <trkpt lat="28.6702217" lon="105.6542817"><ele>428.65</ele><time>2026-04-24T18:20:17.000Z</time></trkpt>
        <trkpt lat="28.6701483" lon="105.6542217"><ele>433.19</ele><time>2026-04-24T18:24:01.000Z</time></trkpt>
        <trkpt lat="28.6700317" lon="105.6542117"><ele>435.26</ele><time>2026-04-24T18:24:39.000Z</time></trkpt>
        <trkpt lat="28.6699065" lon="105.6541777"><ele>438.42</ele><time>2026-04-24T18:25:11.000Z</time></trkpt>
        <trkpt lat="28.6698327" lon="105.6541009"><ele>442.8</ele><time>2026-04-24T18:25:39.000Z</time></trkpt>
        <trkpt lat="28.6697722" lon="105.654008"><ele>445.85</ele><time>2026-04-24T18:25:53.000Z</time></trkpt>
        <trkpt lat="28.6697203" lon="105.6539048"><ele>446.86</ele><time>2026-04-24T18:26:03.000Z</time></trkpt>
        <trkpt lat="28.6697471" lon="105.6537974"><ele>448.51</ele><time>2026-04-24T18:26:13.000Z</time></trkpt>
        <trkpt lat="28.6697372" lon="105.6536867"><ele>450.06</ele><time>2026-04-24T18:26:25.000Z</time></trkpt>
        <trkpt lat="28.6697802" lon="105.6535885"><ele>451.54</ele><time>2026-04-24T18:26:33.000Z</time></trkpt>
        <trkpt lat="28.6697715" lon="105.6534795"><ele>452.47</ele><time>2026-04-24T18:26:53.000Z</time></trkpt>
        <trkpt lat="28.6698184" lon="105.6533925"><ele>453.9</ele><time>2026-04-24T18:27:03.000Z</time></trkpt>
        <trkpt lat="28.669799" lon="105.6532978"><ele>455.32</ele><time>2026-04-24T18:27:21.000Z</time></trkpt>
        <trkpt lat="28.6697317" lon="105.6532256"><ele>458.58</ele><time>2026-04-24T18:27:47.000Z</time></trkpt>
        <trkpt lat="28.6696441" lon="105.6531803"><ele>462.16</ele><time>2026-04-24T18:28:09.000Z</time></trkpt>
        <trkpt lat="28.6695583" lon="105.6531233"><ele>465.62</ele><time>2026-04-24T18:32:21.000Z</time></trkpt>
        <trkpt lat="28.669545" lon="105.6530133"><ele>467.85</ele><time>2026-04-24T18:32:47.000Z</time></trkpt>
        <trkpt lat="28.6695514" lon="105.6528963"><ele>469.55</ele><time>2026-04-24T18:33:03.000Z</time></trkpt>
        <trkpt lat="28.6695253" lon="105.6527908"><ele>472.19</ele><time>2026-04-24T18:33:25.000Z</time></trkpt>
        <trkpt lat="28.6695017" lon="105.6526878"><ele>476.11</ele><time>2026-04-24T18:33:41.000Z</time></trkpt>
        <trkpt lat="28.6694596" lon="105.6525915"><ele>480.32</ele><time>2026-04-24T18:33:57.000Z</time></trkpt>
        <trkpt lat="28.6694251" lon="105.6524874"><ele>484.18</ele><time>2026-04-24T18:34:17.000Z</time></trkpt>
        <trkpt lat="28.6693383" lon="105.6523617"><ele>488.23</ele><time>2026-04-24T18:36:45.000Z</time></trkpt>
        <trkpt lat="28.66925" lon="105.65232"><ele>491.53</ele><time>2026-04-24T18:37:37.000Z</time></trkpt>
        <trkpt lat="28.669259" lon="105.6522304"><ele>495.43</ele><time>2026-04-24T18:38:17.000Z</time></trkpt>
        <trkpt lat="28.6691977" lon="105.6522481"><ele>499.07</ele><time>2026-04-24T18:38:49.000Z</time></trkpt>
        <trkpt lat="28.6691175" lon="105.652299"><ele>501.8</ele><time>2026-04-24T18:39:07.000Z</time></trkpt>
        <trkpt lat="28.6691475" lon="105.6522544"><ele>504.34</ele><time>2026-04-24T18:39:37.000Z</time></trkpt>
        <trkpt lat="28.6691659" lon="105.6521582"><ele>506.64</ele><time>2026-04-24T18:40:13.000Z</time></trkpt>
        <trkpt lat="28.6691861" lon="105.6520422"><ele>508.26</ele><time>2026-04-24T18:40:39.000Z</time></trkpt>
        <trkpt lat="28.6692075" lon="105.6519298"><ele>509.52</ele><time>2026-04-24T18:40:55.000Z</time></trkpt>
        <trkpt lat="28.6692243" lon="105.651822"><ele>510.89</ele><time>2026-04-24T18:41:15.000Z</time></trkpt>
        <trkpt lat="28.6692099" lon="105.6517112"><ele>512.23</ele><time>2026-04-24T18:41:51.000Z</time></trkpt>
        <trkpt lat="28.6692191" lon="105.6515988"><ele>513.81</ele><time>2026-04-24T18:42:01.000Z</time></trkpt>
        <trkpt lat="28.6691985" lon="105.6514799"><ele>515.27</ele><time>2026-04-24T18:42:15.000Z</time></trkpt>
        <trkpt lat="28.6691478" lon="105.6513841"><ele>517.65</ele><time>2026-04-24T18:42:45.000Z</time></trkpt>
        <trkpt lat="28.6690487" lon="105.6513035"><ele>520.72</ele><time>2026-04-24T18:43:25.000Z</time></trkpt>
        <trkpt lat="28.6689656" lon="105.6512187"><ele>524.2</ele><time>2026-04-24T18:44:05.000Z</time></trkpt>
        <trkpt lat="28.66888" lon="105.6511"><ele>528.11</ele><time>2026-04-24T18:45:51.000Z</time></trkpt>
        <trkpt lat="28.6689817" lon="105.651195"><ele>530.65</ele><time>2026-04-24T18:47:27.000Z</time></trkpt>
        <trkpt lat="28.668965" lon="105.6510883"><ele>530.2</ele><time>2026-04-24T18:48:09.000Z</time></trkpt>
        <trkpt lat="28.6689794" lon="105.6509774"><ele>529.38</ele><time>2026-04-24T18:48:33.000Z</time></trkpt>
        <trkpt lat="28.6689658" lon="105.6508748"><ele>528.92</ele><time>2026-04-24T18:48:47.000Z</time></trkpt>
        <trkpt lat="28.6689361" lon="105.6507659"><ele>528.87</ele><time>2026-04-24T18:49:15.000Z</time></trkpt>
        <trkpt lat="28.6689185" lon="105.6506509"><ele>529.83</ele><time>2026-04-24T18:49:37.000Z</time></trkpt>
        <trkpt lat="28.668879" lon="105.65054"><ele>531.45</ele><time>2026-04-24T18:49:59.000Z</time></trkpt>
        <trkpt lat="28.6688566" lon="105.6504323"><ele>532.98</ele><time>2026-04-24T18:50:17.000Z</time></trkpt>
        <trkpt lat="28.6688429" lon="105.6503132"><ele>535.22</ele><time>2026-04-24T18:50:45.000Z</time></trkpt>
        <trkpt lat="28.6688546" lon="105.6502048"><ele>537.36</ele><time>2026-04-24T18:51:01.000Z</time></trkpt>
        <trkpt lat="28.6688349" lon="105.6501009"><ele>539.23</ele><time>2026-04-24T18:51:19.000Z</time></trkpt>
        <trkpt lat="28.6688095" lon="105.649992"><ele>541.2</ele><time>2026-04-24T18:51:39.000Z</time></trkpt>
        <trkpt lat="28.6688304" lon="105.6498897"><ele>543</ele><time>2026-04-24T18:51:55.000Z</time></trkpt>
        <trkpt lat="28.6688351" lon="105.649786"><ele>545.54</ele><time>2026-04-24T18:52:13.000Z</time></trkpt>
        <trkpt lat="28.6688218" lon="105.6496778"><ele>547.2</ele><time>2026-04-24T18:52:27.000Z</time></trkpt>
        <trkpt lat="28.6687691" lon="105.6495829"><ele>547.72</ele><time>2026-04-24T18:52:41.000Z</time></trkpt>
        <trkpt lat="28.6687079" lon="105.6494968"><ele>548.05</ele><time>2026-04-24T18:52:59.000Z</time></trkpt>
        <trkpt lat="28.668695" lon="105.6493957"><ele>549.19</ele><time>2026-04-24T18:53:11.000Z</time></trkpt>
        <trkpt lat="28.668615" lon="105.64938"><ele>550.36</ele><time>2026-04-24T18:55:03.000Z</time></trkpt>
        <trkpt lat="28.6684867" lon="105.6494633"><ele>550.76</ele><time>2026-04-24T18:55:53.000Z</time></trkpt>
        <trkpt lat="28.6684517" lon="105.649365"><ele>553.96</ele><time>2026-04-24T18:59:17.000Z</time></trkpt>
        <trkpt lat="28.6683617" lon="105.649365"><ele>555.78</ele><time>2026-04-24T18:59:55.000Z</time></trkpt>
        <trkpt lat="28.6683097" lon="105.6492874"><ele>556.61</ele><time>2026-04-24T19:00:29.000Z</time></trkpt>
        <trkpt lat="28.6682543" lon="105.6493299"><ele>558.58</ele><time>2026-04-24T19:00:39.000Z</time></trkpt>
        <trkpt lat="28.6681665" lon="105.6493431"><ele>560.48</ele><time>2026-04-24T19:01:27.000Z</time></trkpt>
        <trkpt lat="28.6681843" lon="105.6492556"><ele>565.48</ele><time>2026-04-24T19:02:17.000Z</time></trkpt>
        <trkpt lat="28.6681282" lon="105.6492093"><ele>570.48</ele><time>2026-04-24T19:03:01.000Z</time></trkpt>
        <trkpt lat="28.668055" lon="105.6491355"><ele>575.95</ele><time>2026-04-24T19:03:53.000Z</time></trkpt>
        <trkpt lat="28.6679769" lon="105.6490571"><ele>581.69</ele><time>2026-04-24T19:04:29.000Z</time></trkpt>
        <trkpt lat="28.6678712" lon="105.6490113"><ele>588.06</ele><time>2026-04-24T19:05:07.000Z</time></trkpt>
        <trkpt lat="28.6677564" lon="105.6489986"><ele>594.27</ele><time>2026-04-24T19:05:43.000Z</time></trkpt>
        <trkpt lat="28.6676493" lon="105.6490069"><ele>599.7</ele><time>2026-04-24T19:06:05.000Z</time></trkpt>
        <trkpt lat="28.6675566" lon="105.6489791"><ele>604.52</ele><time>2026-04-24T19:06:25.000Z</time></trkpt>
        <trkpt lat="28.6674697" lon="105.6490046"><ele>606.66</ele><time>2026-04-24T19:06:39.000Z</time></trkpt>
        <trkpt lat="28.6673679" lon="105.6489738"><ele>609.22</ele><time>2026-04-24T19:07:19.000Z</time></trkpt>
        <trkpt lat="28.66731" lon="105.6490517"><ele>614.03</ele><time>2026-04-24T19:09:17.000Z</time></trkpt>
        <trkpt lat="28.6673383" lon="105.6489383"><ele>617.41</ele><time>2026-04-24T19:09:37.000Z</time></trkpt>
        <trkpt lat="28.6672483" lon="105.6488383"><ele>618.83</ele><time>2026-04-24T19:13:51.000Z</time></trkpt>
        <trkpt lat="28.667205" lon="105.6487333"><ele>618.39</ele><time>2026-04-24T19:14:15.000Z</time></trkpt>
        <trkpt lat="28.6671236" lon="105.6486988"><ele>620.24</ele><time>2026-04-24T19:15:13.000Z</time></trkpt>
        <trkpt lat="28.6670303" lon="105.6487154"><ele>623.92</ele><time>2026-04-24T19:15:33.000Z</time></trkpt>
        <trkpt lat="28.6669494" lon="105.6486819"><ele>627.83</ele><time>2026-04-24T19:15:45.000Z</time></trkpt>
        <trkpt lat="28.6668575" lon="105.6486604"><ele>631.39</ele><time>2026-04-24T19:15:57.000Z</time></trkpt>
        <trkpt lat="28.6667656" lon="105.648656"><ele>635.35</ele><time>2026-04-24T19:16:11.000Z</time></trkpt>
        <trkpt lat="28.6666718" lon="105.6486313"><ele>637.82</ele><time>2026-04-24T19:16:29.000Z</time></trkpt>
        <trkpt lat="28.6665083" lon="105.6485867"><ele>639.88</ele><time>2026-04-24T19:18:43.000Z</time></trkpt>
        <trkpt lat="28.6664367" lon="105.6485083"><ele>640.66</ele><time>2026-04-24T19:19:01.000Z</time></trkpt>
        <trkpt lat="28.6663805" lon="105.6484244"><ele>641.5</ele><time>2026-04-24T19:19:19.000Z</time></trkpt>
        <trkpt lat="28.6663361" lon="105.6483265"><ele>642.96</ele><time>2026-04-24T19:19:41.000Z</time></trkpt>
        <trkpt lat="28.6662578" lon="105.6482582"><ele>644.87</ele><time>2026-04-24T19:19:57.000Z</time></trkpt>
        <trkpt lat="28.6661718" lon="105.6482084"><ele>646.86</ele><time>2026-04-24T19:20:13.000Z</time></trkpt>
        <trkpt lat="28.6660979" lon="105.6481445"><ele>649.11</ele><time>2026-04-24T19:20:27.000Z</time></trkpt>
        <trkpt lat="28.66598" lon="105.6481083"><ele>651.13</ele><time>2026-04-24T19:21:35.000Z</time></trkpt>
        <trkpt lat="28.6659117" lon="105.64804"><ele>656.37</ele><time>2026-04-24T19:21:51.000Z</time></trkpt>
        <trkpt lat="28.6658306" lon="105.6479971"><ele>659.86</ele><time>2026-04-24T19:22:13.000Z</time></trkpt>
        <trkpt lat="28.6658246" lon="105.6480692"><ele>662.46</ele><time>2026-04-24T19:23:03.000Z</time></trkpt>
        <trkpt lat="28.66588" lon="105.6482017"><ele>664.63</ele><time>2026-04-24T19:28:03.000Z</time></trkpt>
        <trkpt lat="28.665865" lon="105.6483117"><ele>666.34</ele><time>2026-04-24T19:28:19.000Z</time></trkpt>
        <trkpt lat="28.6659276" lon="105.6483765"><ele>668.08</ele><time>2026-04-24T19:28:31.000Z</time></trkpt>
        <trkpt lat="28.6660039" lon="105.6484321"><ele>669.08</ele><time>2026-04-24T19:28:41.000Z</time></trkpt>
        <trkpt lat="28.6660447" lon="105.6485272"><ele>669.99</ele><time>2026-04-24T19:29:05.000Z</time></trkpt>
        <trkpt lat="28.6660989" lon="105.6486137"><ele>670.64</ele><time>2026-04-24T19:29:19.000Z</time></trkpt>
        <trkpt lat="28.6661572" lon="105.6486945"><ele>670.97</ele><time>2026-04-24T19:29:33.000Z</time></trkpt>
        <trkpt lat="28.6661877" lon="105.6487968"><ele>671.41</ele><time>2026-04-24T19:29:45.000Z</time></trkpt>
        <trkpt lat="28.6662301" lon="105.6488959"><ele>671.58</ele><time>2026-04-24T19:30:01.000Z</time></trkpt>
        <trkpt lat="28.666287" lon="105.648984"><ele>672.19</ele><time>2026-04-24T19:30:13.000Z</time></trkpt>
        <trkpt lat="28.6663554" lon="105.6490602"><ele>672.97</ele><time>2026-04-24T19:30:27.000Z</time></trkpt>
        <trkpt lat="28.6664247" lon="105.6491299"><ele>673.58</ele><time>2026-04-24T19:30:37.000Z</time></trkpt>
        <trkpt lat="28.666467" lon="105.6492294"><ele>674.62</ele><time>2026-04-24T19:30:55.000Z</time></trkpt>
        <trkpt lat="28.6665051" lon="105.6493331"><ele>675.52</ele><time>2026-04-24T19:31:13.000Z</time></trkpt>
        <trkpt lat="28.6665278" lon="105.6494459"><ele>676.67</ele><time>2026-04-24T19:31:27.000Z</time></trkpt>
        <trkpt lat="28.666552" lon="105.6495611"><ele>677.89</ele><time>2026-04-24T19:31:43.000Z</time></trkpt>
        <trkpt lat="28.666573" lon="105.6496713"><ele>678.02</ele><time>2026-04-24T19:31:55.000Z</time></trkpt>
        <trkpt lat="28.6665872" lon="105.6497865"><ele>678.49</ele><time>2026-04-24T19:32:09.000Z</time></trkpt>
        <trkpt lat="28.6665255" lon="105.6498696"><ele>679.4</ele><time>2026-04-24T19:32:29.000Z</time></trkpt>
        <trkpt lat="28.6664342" lon="105.6499182"><ele>680.69</ele><time>2026-04-24T19:32:47.000Z</time></trkpt>
        <trkpt lat="28.6663379" lon="105.649972"><ele>683.27</ele><time>2026-04-24T19:32:59.000Z</time></trkpt>
        <trkpt lat="28.6662624" lon="105.6500418"><ele>686</ele><time>2026-04-24T19:33:21.000Z</time></trkpt>
        <trkpt lat="28.6662271" lon="105.6501398"><ele>689.22</ele><time>2026-04-24T19:33:39.000Z</time></trkpt>
        <trkpt lat="28.6662116" lon="105.6502542"><ele>691.79</ele><time>2026-04-24T19:34:03.000Z</time></trkpt>
        <trkpt lat="28.6662025" lon="105.6503641"><ele>694.42</ele><time>2026-04-24T19:34:17.000Z</time></trkpt>
        <trkpt lat="28.6661546" lon="105.6503253"><ele>697.16</ele><time>2026-04-24T19:34:33.000Z</time></trkpt>
        <trkpt lat="28.6661386" lon="105.6502064"><ele>701.01</ele><time>2026-04-24T19:34:47.000Z</time></trkpt>
        <trkpt lat="28.6661219" lon="105.6500786"><ele>704.23</ele><time>2026-04-24T19:35:09.000Z</time></trkpt>
        <trkpt lat="28.6660875" lon="105.6499623"><ele>706.33</ele><time>2026-04-24T19:35:21.000Z</time></trkpt>
        <trkpt lat="28.6660399" lon="105.6498589"><ele>707.65</ele><time>2026-04-24T19:35:41.000Z</time></trkpt>
        <trkpt lat="28.6659569" lon="105.6498086"><ele>709.69</ele><time>2026-04-24T19:35:53.000Z</time></trkpt>
        <trkpt lat="28.665867" lon="105.6498344"><ele>712.28</ele><time>2026-04-24T19:36:05.000Z</time></trkpt>
        <trkpt lat="28.6657809" lon="105.6498891"><ele>715</ele><time>2026-04-24T19:36:19.000Z</time></trkpt>
        <trkpt lat="28.6656904" lon="105.6499613"><ele>717.75</ele><time>2026-04-24T19:36:31.000Z</time></trkpt>
        <trkpt lat="28.665619" lon="105.6500478"><ele>719.75</ele><time>2026-04-24T19:36:41.000Z</time></trkpt>
        <trkpt lat="28.6655477" lon="105.6501274"><ele>721.02</ele><time>2026-04-24T19:36:53.000Z</time></trkpt>
        <trkpt lat="28.6654932" lon="105.6502219"><ele>721.66</ele><time>2026-04-24T19:37:03.000Z</time></trkpt>
        <trkpt lat="28.6654482" lon="105.6503221"><ele>721.89</ele><time>2026-04-24T19:37:19.000Z</time></trkpt>
        <trkpt lat="28.6654119" lon="105.6504219"><ele>720.56</ele><time>2026-04-24T19:37:29.000Z</time></trkpt>
        <trkpt lat="28.6653638" lon="105.6505154"><ele>719.72</ele><time>2026-04-24T19:37:43.000Z</time></trkpt>
        <trkpt lat="28.6653316" lon="105.6506136"><ele>719.32</ele><time>2026-04-24T19:37:53.000Z</time></trkpt>
        <trkpt lat="28.6653217" lon="105.6507183"><ele>718.84</ele><time>2026-04-24T19:38:55.000Z</time></trkpt>
        <trkpt lat="28.665375" lon="105.650815"><ele>719.64</ele><time>2026-04-24T19:39:07.000Z</time></trkpt>
        <trkpt lat="28.6654326" lon="105.6509088"><ele>720.14</ele><time>2026-04-24T19:39:23.000Z</time></trkpt>
        <trkpt lat="28.6654973" lon="105.6509945"><ele>719.39</ele><time>2026-04-24T19:39:41.000Z</time></trkpt>
        <trkpt lat="28.6655581" lon="105.6510888"><ele>718.75</ele><time>2026-04-24T19:39:55.000Z</time></trkpt>
        <trkpt lat="28.6656258" lon="105.6511653"><ele>718.26</ele><time>2026-04-24T19:40:15.000Z</time></trkpt>
        <trkpt lat="28.6656173" lon="105.6512738"><ele>717.54</ele><time>2026-04-24T19:40:27.000Z</time></trkpt>
        <trkpt lat="28.6656418" lon="105.651375"><ele>717.05</ele><time>2026-04-24T19:40:45.000Z</time></trkpt>
        <trkpt lat="28.6657124" lon="105.6513669"><ele>716.77</ele><time>2026-04-24T19:41:09.000Z</time></trkpt>
        <trkpt lat="28.66578" lon="105.6512899"><ele>718.5</ele><time>2026-04-24T19:41:19.000Z</time></trkpt>
        <trkpt lat="28.665808" lon="105.6511797"><ele>720.05</ele><time>2026-04-24T19:41:31.000Z</time></trkpt>
        <trkpt lat="28.6658453" lon="105.6510617"><ele>721.41</ele><time>2026-04-24T19:41:47.000Z</time></trkpt>
        <trkpt lat="28.6658527" lon="105.6509402"><ele>722.18</ele><time>2026-04-24T19:42:13.000Z</time></trkpt>
        <trkpt lat="28.665917" lon="105.650877"><ele>723.35</ele><time>2026-04-24T19:42:47.000Z</time></trkpt>
        <trkpt lat="28.6659814" lon="105.6508007"><ele>724.27</ele><time>2026-04-24T19:43:21.000Z</time></trkpt>
        <trkpt lat="28.6659397" lon="105.6507351"><ele>725.27</ele><time>2026-04-24T19:43:33.000Z</time></trkpt>
        <trkpt lat="28.6658645" lon="105.6506704"><ele>726.4</ele><time>2026-04-24T19:43:51.000Z</time></trkpt>
        <trkpt lat="28.6657909" lon="105.6505965"><ele>727.22</ele><time>2026-04-24T19:44:33.000Z</time></trkpt>
        <trkpt lat="28.6658167" lon="105.6506917"><ele>726.57</ele><time>2026-04-24T19:46:09.000Z</time></trkpt>
        <trkpt lat="28.6658483" lon="105.6508"><ele>724.9</ele><time>2026-04-24T19:46:27.000Z</time></trkpt>
        <trkpt lat="28.6658504" lon="105.6509112"><ele>724.39</ele><time>2026-04-24T19:46:39.000Z</time></trkpt>
        <trkpt lat="28.6658523" lon="105.6510305"><ele>724.69</ele><time>2026-04-24T19:46:53.000Z</time></trkpt>
        <trkpt lat="28.6658579" lon="105.651145"><ele>725.47</ele><time>2026-04-24T19:47:07.000Z</time></trkpt>
        <trkpt lat="28.6659189" lon="105.6512098"><ele>726.34</ele><time>2026-04-24T19:47:29.000Z</time></trkpt>
        <trkpt lat="28.6660129" lon="105.6512026"><ele>726.54</ele><time>2026-04-24T19:47:41.000Z</time></trkpt>
        <trkpt lat="28.6661149" lon="105.6511605"><ele>726.78</ele><time>2026-04-24T19:47:55.000Z</time></trkpt>
        <trkpt lat="28.6662189" lon="105.6511336"><ele>727.26</ele><time>2026-04-24T19:48:09.000Z</time></trkpt>
        <trkpt lat="28.6663201" lon="105.6511095"><ele>727.79</ele><time>2026-04-24T19:48:21.000Z</time></trkpt>
        <trkpt lat="28.6664253" lon="105.6510819"><ele>729.52</ele><time>2026-04-24T19:48:35.000Z</time></trkpt>
        <trkpt lat="28.66652" lon="105.6510367"><ele>731.49</ele><time>2026-04-24T19:50:07.000Z</time></trkpt>
        <trkpt lat="28.6666133" lon="105.6510117"><ele>734.85</ele><time>2026-04-24T19:50:17.000Z</time></trkpt>
        <trkpt lat="28.666701" lon="105.6509782"><ele>736.51</ele><time>2026-04-24T19:50:33.000Z</time></trkpt>
        <trkpt lat="28.6667967" lon="105.6509394"><ele>736.29</ele><time>2026-04-24T19:50:47.000Z</time></trkpt>
        <trkpt lat="28.6668924" lon="105.6509189"><ele>734.53</ele><time>2026-04-24T19:50:59.000Z</time></trkpt>
        <trkpt lat="28.6669841" lon="105.6508991"><ele>732.84</ele><time>2026-04-24T19:51:09.000Z</time></trkpt>
        <trkpt lat="28.6670818" lon="105.65086"><ele>731.53</ele><time>2026-04-24T19:51:21.000Z</time></trkpt>
        <trkpt lat="28.6671542" lon="105.6507884"><ele>730.23</ele><time>2026-04-24T19:51:31.000Z</time></trkpt>
        <trkpt lat="28.6672247" lon="105.6507033"><ele>729.01</ele><time>2026-04-24T19:52:27.000Z</time></trkpt>
        <trkpt lat="28.6671217" lon="105.6507283"><ele>729.44</ele><time>2026-04-24T20:09:07.000Z</time></trkpt>
        <trkpt lat="28.6669867" lon="105.6507883"><ele>728.99</ele><time>2026-04-24T20:25:15.000Z</time></trkpt>
        <trkpt lat="28.6670917" lon="105.650755"><ele>730.11</ele><time>2026-04-24T20:28:53.000Z</time></trkpt>
        <trkpt lat="28.6671917" lon="105.6507067"><ele>730.88</ele><time>2026-04-24T20:33:41.000Z</time></trkpt>
        <trkpt lat="28.6672867" lon="105.6506833"><ele>729.6</ele><time>2026-04-24T20:33:53.000Z</time></trkpt>
        <trkpt lat="28.6672195" lon="105.6506981"><ele>728.83</ele><time>2026-04-24T20:34:13.000Z</time></trkpt>
        <trkpt lat="28.6672728" lon="105.6506835"><ele>728.43</ele><time>2026-04-24T20:34:49.000Z</time></trkpt>
        <trkpt lat="28.6673379" lon="105.6507365"><ele>727.9</ele><time>2026-04-24T20:35:09.000Z</time></trkpt>
        <trkpt lat="28.6672983" lon="105.6507092"><ele>726.82</ele><time>2026-04-24T20:35:33.000Z</time></trkpt>
        <trkpt lat="28.6672108" lon="105.650708"><ele>726.99</ele><time>2026-04-24T20:35:41.000Z</time></trkpt>
        <trkpt lat="28.6671519" lon="105.6507091"><ele>726.95</ele><time>2026-04-24T20:35:51.000Z</time></trkpt>
        <trkpt lat="28.6670717" lon="105.650775"><ele>727.23</ele><time>2026-04-24T20:43:27.000Z</time></trkpt>
        <trkpt lat="28.6670133" lon="105.650875"><ele>728.55</ele><time>2026-04-24T20:44:09.000Z</time></trkpt>
        <trkpt lat="28.6669437" lon="105.6509609"><ele>729.95</ele><time>2026-04-24T20:44:31.000Z</time></trkpt>
        <trkpt lat="28.666858" lon="105.6509684"><ele>731.26</ele><time>2026-04-24T20:44:45.000Z</time></trkpt>
        <trkpt lat="28.6667696" lon="105.6509952"><ele>732.44</ele><time>2026-04-24T20:44:57.000Z</time></trkpt>
        <trkpt lat="28.6666709" lon="105.6510027"><ele>734.23</ele><time>2026-04-24T20:45:13.000Z</time></trkpt>
        <trkpt lat="28.6665742" lon="105.6510095"><ele>735.46</ele><time>2026-04-24T20:45:25.000Z</time></trkpt>
        <trkpt lat="28.6664929" lon="105.6510528"><ele>736.17</ele><time>2026-04-24T20:45:37.000Z</time></trkpt>
        <trkpt lat="28.6664064" lon="105.6510905"><ele>736.44</ele><time>2026-04-24T20:45:49.000Z</time></trkpt>
        <trkpt lat="28.6663136" lon="105.6511222"><ele>735.95</ele><time>2026-04-24T20:46:03.000Z</time></trkpt>
        <trkpt lat="28.666221" lon="105.6511374"><ele>735.28</ele><time>2026-04-24T20:46:17.000Z</time></trkpt>
        <trkpt lat="28.6661212" lon="105.6511654"><ele>734.77</ele><time>2026-04-24T20:46:29.000Z</time></trkpt>
        <trkpt lat="28.6660215" lon="105.6512042"><ele>734.1</ele><time>2026-04-24T20:46:43.000Z</time></trkpt>
        <trkpt lat="28.6659236" lon="105.651229"><ele>732.72</ele><time>2026-04-24T20:46:55.000Z</time></trkpt>
        <trkpt lat="28.6658478" lon="105.651297"><ele>730.78</ele><time>2026-04-24T20:47:09.000Z</time></trkpt>
        <trkpt lat="28.6657952" lon="105.6513911"><ele>728.68</ele><time>2026-04-24T20:47:25.000Z</time></trkpt>
        <trkpt lat="28.6657573" lon="105.6515014"><ele>726.88</ele><time>2026-04-24T20:47:41.000Z</time></trkpt>
        <trkpt lat="28.6657856" lon="105.65161"><ele>724.52</ele><time>2026-04-24T20:47:55.000Z</time></trkpt>
        <trkpt lat="28.6658337" lon="105.651722"><ele>722.19</ele><time>2026-04-24T20:48:07.000Z</time></trkpt>
        <trkpt lat="28.6658494" lon="105.6518291"><ele>720.09</ele><time>2026-04-24T20:48:17.000Z</time></trkpt>
        <trkpt lat="28.665831" lon="105.6519337"><ele>719.62</ele><time>2026-04-24T20:48:29.000Z</time></trkpt>
        <trkpt lat="28.6657787" lon="105.6520235"><ele>720.77</ele><time>2026-04-24T20:48:45.000Z</time></trkpt>
        <trkpt lat="28.6657259" lon="105.6521254"><ele>723.24</ele><time>2026-04-24T20:49:03.000Z</time></trkpt>
        <trkpt lat="28.6656469" lon="105.6521937"><ele>725.63</ele><time>2026-04-24T20:49:17.000Z</time></trkpt>
        <trkpt lat="28.6655561" lon="105.6522259"><ele>727.68</ele><time>2026-04-24T20:49:27.000Z</time></trkpt>
        <trkpt lat="28.665472" lon="105.6522815"><ele>729.58</ele><time>2026-04-24T20:49:37.000Z</time></trkpt>
        <trkpt lat="28.6654072" lon="105.6523612"><ele>731.22</ele><time>2026-04-24T20:49:47.000Z</time></trkpt>
        <trkpt lat="28.6653514" lon="105.6524574"><ele>733.02</ele><time>2026-04-24T20:49:57.000Z</time></trkpt>
        <trkpt lat="28.6652842" lon="105.6525597"><ele>734.13</ele><time>2026-04-24T20:50:09.000Z</time></trkpt>
        <trkpt lat="28.6652297" lon="105.6526615"><ele>734.25</ele><time>2026-04-24T20:50:19.000Z</time></trkpt>
        <trkpt lat="28.6651748" lon="105.6527607"><ele>733.54</ele><time>2026-04-24T20:50:31.000Z</time></trkpt>
        <trkpt lat="28.6651192" lon="105.6528558"><ele>731.76</ele><time>2026-04-24T20:50:41.000Z</time></trkpt>
        <trkpt lat="28.6650669" lon="105.6529531"><ele>730.06</ele><time>2026-04-24T20:50:51.000Z</time></trkpt>
        <trkpt lat="28.6650143" lon="105.653045"><ele>728.48</ele><time>2026-04-24T20:51:01.000Z</time></trkpt>
        <trkpt lat="28.6649852" lon="105.6531424"><ele>727.41</ele><time>2026-04-24T20:51:11.000Z</time></trkpt>
        <trkpt lat="28.6650171" lon="105.6532396"><ele>726.08</ele><time>2026-04-24T20:51:21.000Z</time></trkpt>
        <trkpt lat="28.6650801" lon="105.653329"><ele>724.92</ele><time>2026-04-24T20:51:33.000Z</time></trkpt>
        <trkpt lat="28.6651728" lon="105.6533629"><ele>725.73</ele><time>2026-04-24T20:51:47.000Z</time></trkpt>
        <trkpt lat="28.6652688" lon="105.6534095"><ele>726.15</ele><time>2026-04-24T20:51:59.000Z</time></trkpt>
        <trkpt lat="28.6653561" lon="105.6534853"><ele>726.34</ele><time>2026-04-24T20:52:11.000Z</time></trkpt>
        <trkpt lat="28.6654042" lon="105.6535853"><ele>726.32</ele><time>2026-04-24T20:52:21.000Z</time></trkpt>
        <trkpt lat="28.6654374" lon="105.6536943"><ele>725.8</ele><time>2026-04-24T20:52:33.000Z</time></trkpt>
        <trkpt lat="28.6654631" lon="105.6538072"><ele>725.33</ele><time>2026-04-24T20:52:43.000Z</time></trkpt>
        <trkpt lat="28.6654692" lon="105.6539151"><ele>725.31</ele><time>2026-04-24T20:52:51.000Z</time></trkpt>
        <trkpt lat="28.6654769" lon="105.6540189"><ele>725.48</ele><time>2026-04-24T20:53:01.000Z</time></trkpt>
        <trkpt lat="28.6654707" lon="105.6541246"><ele>725.75</ele><time>2026-04-24T20:53:47.000Z</time></trkpt>
        <trkpt lat="28.6654115" lon="105.6542024"><ele>727.96</ele><time>2026-04-24T20:53:55.000Z</time></trkpt>
        <trkpt lat="28.6653266" lon="105.6542486"><ele>729.91</ele><time>2026-04-24T20:54:03.000Z</time></trkpt>
        <trkpt lat="28.6652383" lon="105.6543123"><ele>731.63</ele><time>2026-04-24T20:54:15.000Z</time></trkpt>
        <trkpt lat="28.6651597" lon="105.6543887"><ele>733.38</ele><time>2026-04-24T20:54:43.000Z</time></trkpt>
        <trkpt lat="28.6651441" lon="105.6544876"><ele>734.55</ele><time>2026-04-24T20:54:53.000Z</time></trkpt>
        <trkpt lat="28.6651733" lon="105.6546031"><ele>735.26</ele><time>2026-04-24T20:55:03.000Z</time></trkpt>
        <trkpt lat="28.6652244" lon="105.6547043"><ele>735.75</ele><time>2026-04-24T20:55:13.000Z</time></trkpt>
        <trkpt lat="28.6652845" lon="105.6548011"><ele>735.17</ele><time>2026-04-24T20:55:23.000Z</time></trkpt>
        <trkpt lat="28.6653081" lon="105.6549162"><ele>733.94</ele><time>2026-04-24T20:55:35.000Z</time></trkpt>
        <trkpt lat="28.6653122" lon="105.6550256"><ele>732.89</ele><time>2026-04-24T20:55:45.000Z</time></trkpt>
        <trkpt lat="28.6653139" lon="105.6551359"><ele>732.33</ele><time>2026-04-24T20:56:01.000Z</time></trkpt>
        <trkpt lat="28.6653224" lon="105.6552437"><ele>732.96</ele><time>2026-04-24T20:56:13.000Z</time></trkpt>
        <trkpt lat="28.6653455" lon="105.6553505"><ele>733.88</ele><time>2026-04-24T20:56:31.000Z</time></trkpt>
        <trkpt lat="28.6653629" lon="105.6554533"><ele>733.76</ele><time>2026-04-24T20:56:41.000Z</time></trkpt>
        <trkpt lat="28.6653623" lon="105.6555234"><ele>733.13</ele><time>2026-04-24T20:56:47.000Z</time></trkpt>
        <trkpt lat="28.6653189" lon="105.655598"><ele>732.69</ele><time>2026-04-24T20:56:59.000Z</time></trkpt>
        <trkpt lat="28.6652369" lon="105.6556563"><ele>732.52</ele><time>2026-04-24T20:57:09.000Z</time></trkpt>
        <trkpt lat="28.6651424" lon="105.6557068"><ele>732.9</ele><time>2026-04-24T20:57:21.000Z</time></trkpt>
        <trkpt lat="28.6650683" lon="105.6557883"><ele>734.49</ele><time>2026-04-24T20:57:35.000Z</time></trkpt>
        <trkpt lat="28.6649817" lon="105.6558623"><ele>736.43</ele><time>2026-04-24T20:58:13.000Z</time></trkpt>
        <trkpt lat="28.6649271" lon="105.6559524"><ele>739.34</ele><time>2026-04-24T20:58:21.000Z</time></trkpt>
        <trkpt lat="28.6649188" lon="105.656017"><ele>740.79</ele><time>2026-04-24T20:58:35.000Z</time></trkpt>
        <trkpt lat="28.6648936" lon="105.6561076"><ele>741.48</ele><time>2026-04-24T20:58:51.000Z</time></trkpt>
        <trkpt lat="28.6648727" lon="105.656211"><ele>741.7</ele><time>2026-04-24T20:59:01.000Z</time></trkpt>
        <trkpt lat="28.6648739" lon="105.656327"><ele>742.05</ele><time>2026-04-24T20:59:13.000Z</time></trkpt>
        <trkpt lat="28.6649226" lon="105.6564275"><ele>742.16</ele><time>2026-04-24T20:59:23.000Z</time></trkpt>
        <trkpt lat="28.6649909" lon="105.6565098"><ele>741.7</ele><time>2026-04-24T20:59:53.000Z</time></trkpt>
        <trkpt lat="28.6650704" lon="105.6565944"><ele>741.14</ele><time>2026-04-24T21:00:05.000Z</time></trkpt>
        <trkpt lat="28.6651485" lon="105.6566808"><ele>740.31</ele><time>2026-04-24T21:00:15.000Z</time></trkpt>
        <trkpt lat="28.6651652" lon="105.6567797"><ele>739.23</ele><time>2026-04-24T21:00:31.000Z</time></trkpt>
        <trkpt lat="28.6651209" lon="105.6568769"><ele>738.66</ele><time>2026-04-24T21:00:41.000Z</time></trkpt>
        <trkpt lat="28.6650382" lon="105.656963"><ele>739.36</ele><time>2026-04-24T21:00:51.000Z</time></trkpt>
        <trkpt lat="28.6649638" lon="105.6570434"><ele>740.2</ele><time>2026-04-24T21:01:09.000Z</time></trkpt>
        <trkpt lat="28.6649235" lon="105.6571424"><ele>741.57</ele><time>2026-04-24T21:01:29.000Z</time></trkpt>
        <trkpt lat="28.6648476" lon="105.6571848"><ele>742.79</ele><time>2026-04-24T21:01:41.000Z</time></trkpt>
        <trkpt lat="28.6647516" lon="105.657202"><ele>744.04</ele><time>2026-04-24T21:01:55.000Z</time></trkpt>
        <trkpt lat="28.6646585" lon="105.6571765"><ele>745.53</ele><time>2026-04-24T21:02:11.000Z</time></trkpt>
        <trkpt lat="28.6645722" lon="105.6571094"><ele>746.55</ele><time>2026-04-24T21:02:23.000Z</time></trkpt>
        <trkpt lat="28.6644867" lon="105.657041"><ele>746.83</ele><time>2026-04-24T21:02:39.000Z</time></trkpt>
        <trkpt lat="28.6643965" lon="105.6569801"><ele>746.34</ele><time>2026-04-24T21:03:21.000Z</time></trkpt>
        <trkpt lat="28.6643272" lon="105.6568968"><ele>748.13</ele><time>2026-04-24T21:03:37.000Z</time></trkpt>
        <trkpt lat="28.6642571" lon="105.6568086"><ele>749.71</ele><time>2026-04-24T21:04:03.000Z</time></trkpt>
        <trkpt lat="28.6641743" lon="105.6567555"><ele>751.17</ele><time>2026-04-24T21:04:11.000Z</time></trkpt>
        <trkpt lat="28.6640852" lon="105.6566974"><ele>752.26</ele><time>2026-04-24T21:04:23.000Z</time></trkpt>
        <trkpt lat="28.6639966" lon="105.6567077"><ele>753.39</ele><time>2026-04-24T21:04:35.000Z</time></trkpt>
        <trkpt lat="28.6638964" lon="105.6567124"><ele>754.39</ele><time>2026-04-24T21:04:47.000Z</time></trkpt>
        <trkpt lat="28.6638172" lon="105.6566649"><ele>756.03</ele><time>2026-04-24T21:04:59.000Z</time></trkpt>
        <trkpt lat="28.6637515" lon="105.6565889"><ele>757.43</ele><time>2026-04-24T21:05:15.000Z</time></trkpt>
        <trkpt lat="28.6636875" lon="105.6565119"><ele>758.24</ele><time>2026-04-24T21:05:29.000Z</time></trkpt>
        <trkpt lat="28.6636154" lon="105.6564359"><ele>758.26</ele><time>2026-04-24T21:05:43.000Z</time></trkpt>
        <trkpt lat="28.663541" lon="105.6563617"><ele>757.55</ele><time>2026-04-24T21:06:09.000Z</time></trkpt>
        <trkpt lat="28.6634758" lon="105.6562787"><ele>754.95</ele><time>2026-04-24T21:06:25.000Z</time></trkpt>
        <trkpt lat="28.6634016" lon="105.6562092"><ele>752.3</ele><time>2026-04-24T21:06:41.000Z</time></trkpt>
        <trkpt lat="28.6633225" lon="105.6561502"><ele>748.86</ele><time>2026-04-24T21:07:19.000Z</time></trkpt>
        <trkpt lat="28.6632494" lon="105.6560721"><ele>745.05</ele><time>2026-04-24T21:07:33.000Z</time></trkpt>
        <trkpt lat="28.6631863" lon="105.6559837"><ele>742.4</ele><time>2026-04-24T21:08:03.000Z</time></trkpt>
        <trkpt lat="28.6631231" lon="105.6559023"><ele>739.56</ele><time>2026-04-24T21:08:17.000Z</time></trkpt>
        <trkpt lat="28.6630379" lon="105.6559269"><ele>737</ele><time>2026-04-24T21:08:33.000Z</time></trkpt>
        <trkpt lat="28.6629682" lon="105.6560279"><ele>735.02</ele><time>2026-04-24T21:08:43.000Z</time></trkpt>
        <trkpt lat="28.6629315" lon="105.6561436"><ele>733.76</ele><time>2026-04-24T21:08:51.000Z</time></trkpt>
        <trkpt lat="28.662929" lon="105.6562674"><ele>732.1</ele><time>2026-04-24T21:09:07.000Z</time></trkpt>
        <trkpt lat="28.6628745" lon="105.6563557"><ele>729.74</ele><time>2026-04-24T21:09:17.000Z</time></trkpt>
        <trkpt lat="28.6627918" lon="105.6564094"><ele>728.09</ele><time>2026-04-24T21:09:29.000Z</time></trkpt>
        <trkpt lat="28.6626951" lon="105.656437"><ele>726.67</ele><time>2026-04-24T21:09:39.000Z</time></trkpt>
        <trkpt lat="28.6625981" lon="105.6564635"><ele>724.96</ele><time>2026-04-24T21:09:53.000Z</time></trkpt>
        <trkpt lat="28.6625003" lon="105.6564784"><ele>723.3</ele><time>2026-04-24T21:10:05.000Z</time></trkpt>
        <trkpt lat="28.6624021" lon="105.6564854"><ele>721.88</ele><time>2026-04-24T21:10:15.000Z</time></trkpt>
        <trkpt lat="28.662298" lon="105.6564583"><ele>720.51</ele><time>2026-04-24T21:10:25.000Z</time></trkpt>
        <trkpt lat="28.662196" lon="105.6564263"><ele>719.26</ele><time>2026-04-24T21:10:37.000Z</time></trkpt>
        <trkpt lat="28.6620951" lon="105.6564012"><ele>718.07</ele><time>2026-04-24T21:10:53.000Z</time></trkpt>
        <trkpt lat="28.6619986" lon="105.6564089"><ele>716.84</ele><time>2026-04-24T21:11:07.000Z</time></trkpt>
        <trkpt lat="28.6619012" lon="105.6564179"><ele>714.41</ele><time>2026-04-24T21:11:17.000Z</time></trkpt>
        <trkpt lat="28.6618083" lon="105.6564133"><ele>711.78</ele><time>2026-04-24T21:11:33.000Z</time></trkpt>
        <trkpt lat="28.6617132" lon="105.6564178"><ele>709.21</ele><time>2026-04-24T21:11:45.000Z</time></trkpt>
        <trkpt lat="28.6616157" lon="105.6564122"><ele>706.71</ele><time>2026-04-24T21:12:01.000Z</time></trkpt>
        <trkpt lat="28.6615236" lon="105.6564075"><ele>704.9</ele><time>2026-04-24T21:12:15.000Z</time></trkpt>
        <trkpt lat="28.6614323" lon="105.6563885"><ele>705.07</ele><time>2026-04-24T21:12:31.000Z</time></trkpt>
        <trkpt lat="28.6613361" lon="105.6563494"><ele>704.74</ele><time>2026-04-24T21:12:47.000Z</time></trkpt>
        <trkpt lat="28.6612454" lon="105.6563138"><ele>703.91</ele><time>2026-04-24T21:13:01.000Z</time></trkpt>
        <trkpt lat="28.6611544" lon="105.6562748"><ele>702.31</ele><time>2026-04-24T21:13:15.000Z</time></trkpt>
        <trkpt lat="28.6610594" lon="105.6562527"><ele>699.42</ele><time>2026-04-24T21:13:31.000Z</time></trkpt>
        <trkpt lat="28.660979" lon="105.6562023"><ele>696.49</ele><time>2026-04-24T21:13:45.000Z</time></trkpt>
        <trkpt lat="28.6608867" lon="105.6561659"><ele>693.74</ele><time>2026-04-24T21:14:05.000Z</time></trkpt>
        <trkpt lat="28.6607955" lon="105.6561258"><ele>690.8</ele><time>2026-04-24T21:14:19.000Z</time></trkpt>
        <trkpt lat="28.6607038" lon="105.6561018"><ele>688.39</ele><time>2026-04-24T21:14:37.000Z</time></trkpt>
        <trkpt lat="28.6606082" lon="105.6561075"><ele>686.42</ele><time>2026-04-24T21:15:09.000Z</time></trkpt>
        <trkpt lat="28.6605275" lon="105.656057"><ele>685.42</ele><time>2026-04-24T21:15:55.000Z</time></trkpt>
        <trkpt lat="28.6604238" lon="105.6560239"><ele>684.46</ele><time>2026-04-24T21:16:05.000Z</time></trkpt>
        <trkpt lat="28.6603322" lon="105.6559854"><ele>684.09</ele><time>2026-04-24T21:16:15.000Z</time></trkpt>
        <trkpt lat="28.6602422" lon="105.6559476"><ele>683.67</ele><time>2026-04-24T21:16:37.000Z</time></trkpt>
        <trkpt lat="28.6601451" lon="105.6559141"><ele>683.34</ele><time>2026-04-24T21:17:01.000Z</time></trkpt>
        <trkpt lat="28.6600627" lon="105.655861"><ele>683.11</ele><time>2026-04-24T21:17:15.000Z</time></trkpt>
        <trkpt lat="28.6599748" lon="105.6557981"><ele>682.63</ele><time>2026-04-24T21:17:29.000Z</time></trkpt>
        <trkpt lat="28.6598979" lon="105.6557276"><ele>681.71</ele><time>2026-04-24T21:17:41.000Z</time></trkpt>
        <trkpt lat="28.6598338" lon="105.6556466"><ele>680.42</ele><time>2026-04-24T21:17:57.000Z</time></trkpt>
        <trkpt lat="28.6597612" lon="105.6555778"><ele>678.04</ele><time>2026-04-24T21:18:11.000Z</time></trkpt>
        <trkpt lat="28.6596857" lon="105.6555108"><ele>676.09</ele><time>2026-04-24T21:18:47.000Z</time></trkpt>
        <trkpt lat="28.659594" lon="105.6554982"><ele>674.89</ele><time>2026-04-24T21:19:09.000Z</time></trkpt>
        <trkpt lat="28.6595016" lon="105.6554715"><ele>673.3</ele><time>2026-04-24T21:19:25.000Z</time></trkpt>
        <trkpt lat="28.6594049" lon="105.6554629"><ele>671.54</ele><time>2026-04-24T21:19:43.000Z</time></trkpt>
        <trkpt lat="28.6593158" lon="105.6554363"><ele>669.24</ele><time>2026-04-24T21:19:59.000Z</time></trkpt>
        <trkpt lat="28.6592314" lon="105.6554618"><ele>666.73</ele><time>2026-04-24T21:20:35.000Z</time></trkpt>
        <trkpt lat="28.6591509" lon="105.6554364"><ele>663.53</ele><time>2026-04-24T21:21:09.000Z</time></trkpt>
        <trkpt lat="28.6591268" lon="105.6553471"><ele>661.24</ele><time>2026-04-24T21:21:23.000Z</time></trkpt>
        <trkpt lat="28.6591328" lon="105.6553948"><ele>660.4</ele><time>2026-04-24T21:21:49.000Z</time></trkpt>
        <trkpt lat="28.6591067" lon="105.6555367"><ele>660.57</ele><time>2026-04-24T21:22:53.000Z</time></trkpt>
        <trkpt lat="28.6591683" lon="105.6556133"><ele>658.74</ele><time>2026-04-24T21:23:21.000Z</time></trkpt>
        <trkpt lat="28.6591017" lon="105.6556674"><ele>657</ele><time>2026-04-24T21:23:41.000Z</time></trkpt>
        <trkpt lat="28.6590316" lon="105.6556159"><ele>655.67</ele><time>2026-04-24T21:23:53.000Z</time></trkpt>
        <trkpt lat="28.6589435" lon="105.65554"><ele>655.25</ele><time>2026-04-24T21:24:35.000Z</time></trkpt>
        <trkpt lat="28.6588694" lon="105.6554688"><ele>652.78</ele><time>2026-04-24T21:24:43.000Z</time></trkpt>
        <trkpt lat="28.6587756" lon="105.65546"><ele>651.28</ele><time>2026-04-24T21:25:03.000Z</time></trkpt>
        <trkpt lat="28.658679" lon="105.6554487"><ele>648.49</ele><time>2026-04-24T21:25:15.000Z</time></trkpt>
        <trkpt lat="28.658585" lon="105.6555083"><ele>645.4</ele><time>2026-04-24T21:26:27.000Z</time></trkpt>
        <trkpt lat="28.6586267" lon="105.655415"><ele>639.64</ele><time>2026-04-24T21:27:43.000Z</time></trkpt>
        <trkpt lat="28.65852" lon="105.6553317"><ele>636.26</ele><time>2026-04-24T21:28:43.000Z</time></trkpt>
        <trkpt lat="28.6584585" lon="105.6552088"><ele>631.42</ele><time>2026-04-24T21:28:55.000Z</time></trkpt>
        <trkpt lat="28.6583766" lon="105.6551987"><ele>628.66</ele><time>2026-04-24T21:29:05.000Z</time></trkpt>
        <trkpt lat="28.658335" lon="105.655285"><ele>627.64</ele><time>2026-04-24T21:29:33.000Z</time></trkpt>
        <trkpt lat="28.6582704" lon="105.6553681"><ele>628.7</ele><time>2026-04-24T21:29:39.000Z</time></trkpt>
        <trkpt lat="28.6581854" lon="105.6553401"><ele>629.69</ele><time>2026-04-24T21:29:55.000Z</time></trkpt>
        <trkpt lat="28.6580941" lon="105.6552848"><ele>630.64</ele><time>2026-04-24T21:30:05.000Z</time></trkpt>
        <trkpt lat="28.65803" lon="105.6551817"><ele>631.23</ele><time>2026-04-24T21:31:07.000Z</time></trkpt>
        <trkpt lat="28.6579633" lon="105.6551117"><ele>626.96</ele><time>2026-04-24T21:31:17.000Z</time></trkpt>
        <trkpt lat="28.6578769" lon="105.6550544"><ele>623.53</ele><time>2026-04-24T21:31:29.000Z</time></trkpt>
        <trkpt lat="28.6577819" lon="105.6549517"><ele>621.37</ele><time>2026-04-24T21:32:03.000Z</time></trkpt>
        <trkpt lat="28.6577731" lon="105.654845"><ele>621.04</ele><time>2026-04-24T21:32:21.000Z</time></trkpt>
        <trkpt lat="28.6577383" lon="105.6549167"><ele>620.42</ele><time>2026-04-24T21:36:49.000Z</time></trkpt>
        <trkpt lat="28.6577917" lon="105.65483"><ele>619.21</ele><time>2026-04-24T21:37:19.000Z</time></trkpt>
        <trkpt lat="28.6578883" lon="105.6547633"><ele>617.7</ele><time>2026-04-24T21:38:47.000Z</time></trkpt>
        <trkpt lat="28.6579083" lon="105.6546633"><ele>615.55</ele><time>2026-04-24T21:39:43.000Z</time></trkpt>
        <trkpt lat="28.6579946" lon="105.654631"><ele>616.43</ele><time>2026-04-24T21:39:59.000Z</time></trkpt>
        <trkpt lat="28.6580759" lon="105.6545734"><ele>615.82</ele><time>2026-04-24T21:40:09.000Z</time></trkpt>
        <trkpt lat="28.658082" lon="105.6544731"><ele>614.82</ele><time>2026-04-24T21:40:21.000Z</time></trkpt>
        <trkpt lat="28.658019" lon="105.6543923"><ele>613.82</ele><time>2026-04-24T21:40:35.000Z</time></trkpt>
        <trkpt lat="28.6580467" lon="105.6544683"><ele>612.74</ele><time>2026-04-24T21:42:07.000Z</time></trkpt>
        <trkpt lat="28.6580583" lon="105.6545767"><ele>611.95</ele><time>2026-04-24T21:42:33.000Z</time></trkpt>
        <trkpt lat="28.6579812" lon="105.6546074"><ele>611.71</ele><time>2026-04-24T21:42:49.000Z</time></trkpt>
        <trkpt lat="28.6578818" lon="105.6545563"><ele>612.01</ele><time>2026-04-24T21:43:47.000Z</time></trkpt>
        <trkpt lat="28.6577826" lon="105.6545218"><ele>611.96</ele><time>2026-04-24T21:44:03.000Z</time></trkpt>
        <trkpt lat="28.6576853" lon="105.6544855"><ele>611.46</ele><time>2026-04-24T21:44:17.000Z</time></trkpt>
        <trkpt lat="28.6575954" lon="105.6544395"><ele>611.01</ele><time>2026-04-24T21:44:29.000Z</time></trkpt>
        <trkpt lat="28.6575028" lon="105.6543853"><ele>610.31</ele><time>2026-04-24T21:44:41.000Z</time></trkpt>
        <trkpt lat="28.6574142" lon="105.654328"><ele>609.66</ele><time>2026-04-24T21:45:17.000Z</time></trkpt>
        <trkpt lat="28.6573186" lon="105.6542796"><ele>607.4</ele><time>2026-04-24T21:45:29.000Z</time></trkpt>
        <trkpt lat="28.657219" lon="105.6542777"><ele>605.76</ele><time>2026-04-24T21:45:41.000Z</time></trkpt>
        <trkpt lat="28.657122" lon="105.6543065"><ele>604.36</ele><time>2026-04-24T21:45:55.000Z</time></trkpt>
        <trkpt lat="28.6570277" lon="105.6543227"><ele>602.96</ele><time>2026-04-24T21:46:07.000Z</time></trkpt>
        <trkpt lat="28.6569331" lon="105.654345"><ele>601.38</ele><time>2026-04-24T21:46:19.000Z</time></trkpt>
        <trkpt lat="28.656842" lon="105.654326"><ele>599.93</ele><time>2026-04-24T21:46:29.000Z</time></trkpt>
        <trkpt lat="28.6567522" lon="105.6543011"><ele>598.5</ele><time>2026-04-24T21:46:39.000Z</time></trkpt>
        <trkpt lat="28.6566589" lon="105.6542696"><ele>597.59</ele><time>2026-04-24T21:46:51.000Z</time></trkpt>
        <trkpt lat="28.6565616" lon="105.6542871"><ele>596.87</ele><time>2026-04-24T21:47:03.000Z</time></trkpt>
        <trkpt lat="28.6564617" lon="105.6543048"><ele>595.5</ele><time>2026-04-24T21:47:13.000Z</time></trkpt>
        <trkpt lat="28.6563674" lon="105.6542866"><ele>593.82</ele><time>2026-04-24T21:47:25.000Z</time></trkpt>
        <trkpt lat="28.6562691" lon="105.6543104"><ele>592.78</ele><time>2026-04-24T21:47:33.000Z</time></trkpt>
        <trkpt lat="28.6562307" lon="105.6544049"><ele>592.02</ele><time>2026-04-24T21:47:43.000Z</time></trkpt>
        <trkpt lat="28.6562818" lon="105.6544935"><ele>591.54</ele><time>2026-04-24T21:48:21.000Z</time></trkpt>
        <trkpt lat="28.65628" lon="105.654395"><ele>591.39</ele><time>2026-04-24T21:50:15.000Z</time></trkpt>
        <trkpt lat="28.6561867" lon="105.6543417"><ele>590.53</ele><time>2026-04-24T21:50:55.000Z</time></trkpt>
        <trkpt lat="28.6561004" lon="105.6542869"><ele>590.3</ele><time>2026-04-24T21:51:07.000Z</time></trkpt>
        <trkpt lat="28.6560205" lon="105.6542281"><ele>589.92</ele><time>2026-04-24T21:51:17.000Z</time></trkpt>
        <trkpt lat="28.6559439" lon="105.6541554"><ele>589.09</ele><time>2026-04-24T21:51:27.000Z</time></trkpt>
        <trkpt lat="28.6558557" lon="105.6540879"><ele>588.11</ele><time>2026-04-24T21:51:39.000Z</time></trkpt>
        <trkpt lat="28.6557728" lon="105.6540218"><ele>586.64</ele><time>2026-04-24T21:51:55.000Z</time></trkpt>
        <trkpt lat="28.6556835" lon="105.6539953"><ele>585.25</ele><time>2026-04-24T21:52:05.000Z</time></trkpt>
        <trkpt lat="28.6555868" lon="105.6539883"><ele>584.02</ele><time>2026-04-24T21:52:15.000Z</time></trkpt>
        <trkpt lat="28.6555377" lon="105.6540777"><ele>583.15</ele><time>2026-04-24T21:52:23.000Z</time></trkpt>
        <trkpt lat="28.6555793" lon="105.6541738"><ele>581.93</ele><time>2026-04-24T21:52:33.000Z</time></trkpt>
        <trkpt lat="28.6556667" lon="105.6542596"><ele>581.1</ele><time>2026-04-24T21:52:45.000Z</time></trkpt>
        <trkpt lat="28.6557446" lon="105.6543479"><ele>580.24</ele><time>2026-04-24T21:52:59.000Z</time></trkpt>
        <trkpt lat="28.6558082" lon="105.6544544"><ele>578.72</ele><time>2026-04-24T21:53:15.000Z</time></trkpt>
        <trkpt lat="28.6558678" lon="105.6545441"><ele>577.42</ele><time>2026-04-24T21:53:23.000Z</time></trkpt>
        <trkpt lat="28.6558791" lon="105.6546538"><ele>576.38</ele><time>2026-04-24T21:53:33.000Z</time></trkpt>
        <trkpt lat="28.6558951" lon="105.6547572"><ele>575.14</ele><time>2026-04-24T21:53:43.000Z</time></trkpt>
        <trkpt lat="28.6559067" lon="105.6548622"><ele>574.09</ele><time>2026-04-24T21:53:55.000Z</time></trkpt>
        <trkpt lat="28.6558753" lon="105.6549726"><ele>573.97</ele><time>2026-04-24T21:54:07.000Z</time></trkpt>
        <trkpt lat="28.6558126" lon="105.6550572"><ele>574.67</ele><time>2026-04-24T21:54:17.000Z</time></trkpt>
        <trkpt lat="28.6557189" lon="105.6551221"><ele>576.1</ele><time>2026-04-24T21:54:27.000Z</time></trkpt>
        <trkpt lat="28.6556307" lon="105.6551784"><ele>577.61</ele><time>2026-04-24T21:54:35.000Z</time></trkpt>
        <trkpt lat="28.6555668" lon="105.6552721"><ele>578.33</ele><time>2026-04-24T21:54:45.000Z</time></trkpt>
        <trkpt lat="28.6555483" lon="105.6553846"><ele>577.55</ele><time>2026-04-24T21:54:55.000Z</time></trkpt>
        <trkpt lat="28.6555721" lon="105.6554888"><ele>575.81</ele><time>2026-04-24T21:55:05.000Z</time></trkpt>
        <trkpt lat="28.6556249" lon="105.6555834"><ele>575.42</ele><time>2026-04-24T21:55:15.000Z</time></trkpt>
        <trkpt lat="28.6556983" lon="105.6556814"><ele>575.11</ele><time>2026-04-24T21:55:25.000Z</time></trkpt>
        <trkpt lat="28.6557619" lon="105.6557835"><ele>574.37</ele><time>2026-04-24T21:55:33.000Z</time></trkpt>
        <trkpt lat="28.6558238" lon="105.6558695"><ele>574.26</ele><time>2026-04-24T21:55:43.000Z</time></trkpt>
        <trkpt lat="28.6558953" lon="105.6559544"><ele>573.93</ele><time>2026-04-24T21:55:53.000Z</time></trkpt>
        <trkpt lat="28.6559611" lon="105.6560497"><ele>572.97</ele><time>2026-04-24T21:56:03.000Z</time></trkpt>
        <trkpt lat="28.6560027" lon="105.6561492"><ele>572.51</ele><time>2026-04-24T21:56:13.000Z</time></trkpt>
        <trkpt lat="28.6560692" lon="105.65625"><ele>572.94</ele><time>2026-04-24T21:56:25.000Z</time></trkpt>
        <trkpt lat="28.6561323" lon="105.6563395"><ele>573.48</ele><time>2026-04-24T21:56:37.000Z</time></trkpt>
        <trkpt lat="28.6561984" lon="105.6564171"><ele>574.74</ele><time>2026-04-24T21:56:49.000Z</time></trkpt>
        <trkpt lat="28.6562755" lon="105.6564971"><ele>576.14</ele><time>2026-04-24T21:57:03.000Z</time></trkpt>
        <trkpt lat="28.6563627" lon="105.65654"><ele>577.67</ele><time>2026-04-24T21:57:13.000Z</time></trkpt>
        <trkpt lat="28.6564439" lon="105.6565936"><ele>579.32</ele><time>2026-04-24T21:57:25.000Z</time></trkpt>
        <trkpt lat="28.6565159" lon="105.656662"><ele>580.86</ele><time>2026-04-24T21:57:37.000Z</time></trkpt>
        <trkpt lat="28.6565817" lon="105.6567339"><ele>582.25</ele><time>2026-04-24T21:57:47.000Z</time></trkpt>
        <trkpt lat="28.6566532" lon="105.6567966"><ele>583.52</ele><time>2026-04-24T21:57:57.000Z</time></trkpt>
        <trkpt lat="28.6567299" lon="105.656873"><ele>584.37</ele><time>2026-04-24T21:58:09.000Z</time></trkpt>
        <trkpt lat="28.6567959" lon="105.6569521"><ele>585.24</ele><time>2026-04-24T21:58:19.000Z</time></trkpt>
        <trkpt lat="28.6568828" lon="105.6570192"><ele>586.21</ele><time>2026-04-24T21:58:31.000Z</time></trkpt>
        <trkpt lat="28.6569702" lon="105.6570825"><ele>587.07</ele><time>2026-04-24T21:58:41.000Z</time></trkpt>
        <trkpt lat="28.6570544" lon="105.657145"><ele>588.16</ele><time>2026-04-24T21:58:51.000Z</time></trkpt>
        <trkpt lat="28.6571357" lon="105.6572125"><ele>589.42</ele><time>2026-04-24T21:59:03.000Z</time></trkpt>
        <trkpt lat="28.6572207" lon="105.6572684"><ele>590.66</ele><time>2026-04-24T21:59:17.000Z</time></trkpt>
        <trkpt lat="28.6573011" lon="105.6573274"><ele>592.1</ele><time>2026-04-24T21:59:27.000Z</time></trkpt>
        <trkpt lat="28.6573795" lon="105.6574057"><ele>593.78</ele><time>2026-04-24T21:59:37.000Z</time></trkpt>
        <trkpt lat="28.6574412" lon="105.6574999"><ele>595.68</ele><time>2026-04-24T21:59:49.000Z</time></trkpt>
        <trkpt lat="28.6575007" lon="105.6575852"><ele>597.28</ele><time>2026-04-24T22:00:05.000Z</time></trkpt>
        <trkpt lat="28.6575328" lon="105.6576808"><ele>598.71</ele><time>2026-04-24T22:00:37.000Z</time></trkpt>
        <trkpt lat="28.657607" lon="105.6577461"><ele>599.48</ele><time>2026-04-24T22:00:49.000Z</time></trkpt>
        <trkpt lat="28.6576909" lon="105.6578059"><ele>600</ele><time>2026-04-24T22:01:03.000Z</time></trkpt>
        <trkpt lat="28.6577845" lon="105.6578575"><ele>600.43</ele><time>2026-04-24T22:01:15.000Z</time></trkpt>
        <trkpt lat="28.6578767" lon="105.6578971"><ele>601.11</ele><time>2026-04-24T22:01:23.000Z</time></trkpt>
        <trkpt lat="28.6579671" lon="105.6579357"><ele>601.75</ele><time>2026-04-24T22:01:33.000Z</time></trkpt>
        <trkpt lat="28.6580514" lon="105.6579765"><ele>603.28</ele><time>2026-04-24T22:01:45.000Z</time></trkpt>
        <trkpt lat="28.658127" lon="105.6580512"><ele>605.35</ele><time>2026-04-24T22:01:55.000Z</time></trkpt>
        <trkpt lat="28.6582221" lon="105.6581085"><ele>607.27</ele><time>2026-04-24T22:02:07.000Z</time></trkpt>
        <trkpt lat="28.6583163" lon="105.6581215"><ele>608.31</ele><time>2026-04-24T22:02:17.000Z</time></trkpt>
        <trkpt lat="28.6584018" lon="105.6581608"><ele>609.3</ele><time>2026-04-24T22:02:27.000Z</time></trkpt>
        <trkpt lat="28.65849" lon="105.6581984"><ele>610.33</ele><time>2026-04-24T22:02:37.000Z</time></trkpt>
        <trkpt lat="28.6585808" lon="105.658234"><ele>611.52</ele><time>2026-04-24T22:02:47.000Z</time></trkpt>
        <trkpt lat="28.6586651" lon="105.6582877"><ele>612.46</ele><time>2026-04-24T22:02:57.000Z</time></trkpt>
        <trkpt lat="28.6587618" lon="105.6583319"><ele>613.59</ele><time>2026-04-24T22:03:09.000Z</time></trkpt>
        <trkpt lat="28.6588571" lon="105.658359"><ele>614.63</ele><time>2026-04-24T22:03:19.000Z</time></trkpt>
        <trkpt lat="28.6589589" lon="105.6583788"><ele>615.69</ele><time>2026-04-24T22:03:31.000Z</time></trkpt>
        <trkpt lat="28.6590603" lon="105.6583831"><ele>617.72</ele><time>2026-04-24T22:03:39.000Z</time></trkpt>
        <trkpt lat="28.6591524" lon="105.6584201"><ele>619.47</ele><time>2026-04-24T22:03:49.000Z</time></trkpt>
        <trkpt lat="28.6592521" lon="105.6584642"><ele>622.32</ele><time>2026-04-24T22:03:59.000Z</time></trkpt>
        <trkpt lat="28.6593424" lon="105.658531"><ele>625.02</ele><time>2026-04-24T22:04:09.000Z</time></trkpt>
        <trkpt lat="28.6594254" lon="105.6585877"><ele>626.99</ele><time>2026-04-24T22:04:19.000Z</time></trkpt>
        <trkpt lat="28.6594848" lon="105.6586727"><ele>627.55</ele><time>2026-04-24T22:04:29.000Z</time></trkpt>
        <trkpt lat="28.6595687" lon="105.6587164"><ele>627.32</ele><time>2026-04-24T22:04:53.000Z</time></trkpt>
        <trkpt lat="28.6596608" lon="105.6587106"><ele>627.05</ele><time>2026-04-24T22:05:05.000Z</time></trkpt>
        <trkpt lat="28.6597553" lon="105.6586694"><ele>627.29</ele><time>2026-04-24T22:05:15.000Z</time></trkpt>
        <trkpt lat="28.6598512" lon="105.6586348"><ele>627.89</ele><time>2026-04-24T22:05:25.000Z</time></trkpt>
        <trkpt lat="28.6599447" lon="105.658624"><ele>629.06</ele><time>2026-04-24T22:05:35.000Z</time></trkpt>
        <trkpt lat="28.6600332" lon="105.6585834"><ele>631.06</ele><time>2026-04-24T22:05:49.000Z</time></trkpt>
        <trkpt lat="28.6601223" lon="105.6585353"><ele>633.48</ele><time>2026-04-24T22:06:03.000Z</time></trkpt>
        <trkpt lat="28.6602093" lon="105.6584683"><ele>636.11</ele><time>2026-04-24T22:06:23.000Z</time></trkpt>
        <trkpt lat="28.6602957" lon="105.658403"><ele>638.69</ele><time>2026-04-24T22:06:35.000Z</time></trkpt>
        <trkpt lat="28.6603959" lon="105.6583839"><ele>641.1</ele><time>2026-04-24T22:06:47.000Z</time></trkpt>
        <trkpt lat="28.6604923" lon="105.6583861"><ele>643.08</ele><time>2026-04-24T22:06:57.000Z</time></trkpt>
        <trkpt lat="28.6605856" lon="105.658354"><ele>644.55</ele><time>2026-04-24T22:07:07.000Z</time></trkpt>
        <trkpt lat="28.6606762" lon="105.658307"><ele>645.69</ele><time>2026-04-24T22:07:17.000Z</time></trkpt>
        <trkpt lat="28.660677" lon="105.6582177"><ele>646.81</ele><time>2026-04-24T22:07:45.000Z</time></trkpt>
        <trkpt lat="28.6606377" lon="105.6581154"><ele>647.54</ele><time>2026-04-24T22:07:53.000Z</time></trkpt>
        <trkpt lat="28.66055" lon="105.657945"><ele>648</ele><time>2026-04-24T22:10:11.000Z</time></trkpt>
        <trkpt lat="28.660615" lon="105.6580317"><ele>645.67</ele><time>2026-04-24T22:10:39.000Z</time></trkpt>
        <trkpt lat="28.6605658" lon="105.6579801"><ele>644.83</ele><time>2026-04-24T22:11:17.000Z</time></trkpt>
        <trkpt lat="28.6605733" lon="105.6578533"><ele>644.17</ele><time>2026-04-24T22:12:19.000Z</time></trkpt>
        <trkpt lat="28.660585" lon="105.657735"><ele>644.27</ele><time>2026-04-24T22:12:33.000Z</time></trkpt>
        <trkpt lat="28.6606559" lon="105.6576745"><ele>644.71</ele><time>2026-04-24T22:12:43.000Z</time></trkpt>
        <trkpt lat="28.6607437" lon="105.6576204"><ele>645.31</ele><time>2026-04-24T22:12:55.000Z</time></trkpt>
        <trkpt lat="28.6608258" lon="105.657561"><ele>646.42</ele><time>2026-04-24T22:13:35.000Z</time></trkpt>
        <trkpt lat="28.6609234" lon="105.6575088"><ele>649.04</ele><time>2026-04-24T22:13:45.000Z</time></trkpt>
        <trkpt lat="28.6610007" lon="105.657431"><ele>651.13</ele><time>2026-04-24T22:13:57.000Z</time></trkpt>
        <trkpt lat="28.6610579" lon="105.6573369"><ele>652.79</ele><time>2026-04-24T22:14:07.000Z</time></trkpt>
        <trkpt lat="28.6611482" lon="105.6573243"><ele>653.66</ele><time>2026-04-24T22:14:19.000Z</time></trkpt>
        <trkpt lat="28.6612432" lon="105.6573027"><ele>653.98</ele><time>2026-04-24T22:14:31.000Z</time></trkpt>
        <trkpt lat="28.661335" lon="105.657273"><ele>653.94</ele><time>2026-04-24T22:14:41.000Z</time></trkpt>
        <trkpt lat="28.6614323" lon="105.6572688"><ele>653.8</ele><time>2026-04-24T22:14:51.000Z</time></trkpt>
        <trkpt lat="28.6614938" lon="105.65734"><ele>653.54</ele><time>2026-04-24T22:14:59.000Z</time></trkpt>
        <trkpt lat="28.6615304" lon="105.6574522"><ele>653.05</ele><time>2026-04-24T22:15:09.000Z</time></trkpt>
        <trkpt lat="28.6615397" lon="105.6575706"><ele>652.94</ele><time>2026-04-24T22:15:19.000Z</time></trkpt>
        <trkpt lat="28.6615976" lon="105.6576501"><ele>653.23</ele><time>2026-04-24T22:15:55.000Z</time></trkpt>
        <trkpt lat="28.6616922" lon="105.6576862"><ele>654.89</ele><time>2026-04-24T22:16:41.000Z</time></trkpt>
        <trkpt lat="28.6617928" lon="105.6576782"><ele>657.13</ele><time>2026-04-24T22:16:53.000Z</time></trkpt>
        <trkpt lat="28.6618942" lon="105.6576605"><ele>659.18</ele><time>2026-04-24T22:17:05.000Z</time></trkpt>
        <trkpt lat="28.6619941" lon="105.6576369"><ele>661.13</ele><time>2026-04-24T22:17:19.000Z</time></trkpt>
        <trkpt lat="28.6620912" lon="105.6576274"><ele>662.84</ele><time>2026-04-24T22:17:31.000Z</time></trkpt>
        <trkpt lat="28.6621932" lon="105.657616"><ele>664.58</ele><time>2026-04-24T22:17:43.000Z</time></trkpt>
        <trkpt lat="28.6622905" lon="105.6576291"><ele>666.01</ele><time>2026-04-24T22:17:53.000Z</time></trkpt>
        <trkpt lat="28.6623759" lon="105.6576688"><ele>667.34</ele><time>2026-04-24T22:18:05.000Z</time></trkpt>
        <trkpt lat="28.662457" lon="105.6577196"><ele>668.4</ele><time>2026-04-24T22:18:15.000Z</time></trkpt>
        <trkpt lat="28.6625422" lon="105.6577784"><ele>669.69</ele><time>2026-04-24T22:18:27.000Z</time></trkpt>
        <trkpt lat="28.6626396" lon="105.6577985"><ele>671.93</ele><time>2026-04-24T22:18:45.000Z</time></trkpt>
        <trkpt lat="28.6627428" lon="105.657798"><ele>675.87</ele><time>2026-04-24T22:19:05.000Z</time></trkpt>
        <trkpt lat="28.6628412" lon="105.6577863"><ele>678.94</ele><time>2026-04-24T22:19:19.000Z</time></trkpt>
        <trkpt lat="28.6629059" lon="105.6577124"><ele>680.6</ele><time>2026-04-24T22:19:55.000Z</time></trkpt>
        <trkpt lat="28.662987" lon="105.6576774"><ele>680.34</ele><time>2026-04-24T22:20:15.000Z</time></trkpt>
        <trkpt lat="28.6630822" lon="105.6575946"><ele>680.24</ele><time>2026-04-24T22:20:51.000Z</time></trkpt>
        <trkpt lat="28.6631888" lon="105.6575482"><ele>682.85</ele><time>2026-04-24T22:21:41.000Z</time></trkpt>
        <trkpt lat="28.6633033" lon="105.6575383"><ele>687.21</ele><time>2026-04-24T22:25:21.000Z</time></trkpt>
        <trkpt lat="28.663395" lon="105.6575567"><ele>692.37</ele><time>2026-04-24T22:30:39.000Z</time></trkpt>
        <trkpt lat="28.6633083" lon="105.6575067"><ele>693.29</ele><time>2026-04-24T22:31:39.000Z</time></trkpt>
        <trkpt lat="28.6633317" lon="105.6575921"><ele>695.36</ele><time>2026-04-24T22:32:23.000Z</time></trkpt>
        <trkpt lat="28.6634028" lon="105.6576538"><ele>695.68</ele><time>2026-04-24T22:32:41.000Z</time></trkpt>
        <trkpt lat="28.6634957" lon="105.6576901"><ele>695.99</ele><time>2026-04-24T22:32:55.000Z</time></trkpt>
        <trkpt lat="28.6635822" lon="105.6577473"><ele>696.38</ele><time>2026-04-24T22:33:11.000Z</time></trkpt>
        <trkpt lat="28.6636578" lon="105.6578275"><ele>697.72</ele><time>2026-04-24T22:33:27.000Z</time></trkpt>
        <trkpt lat="28.6637362" lon="105.6579014"><ele>699.91</ele><time>2026-04-24T22:33:43.000Z</time></trkpt>
        <trkpt lat="28.6638228" lon="105.6579423"><ele>701.41</ele><time>2026-04-24T22:33:53.000Z</time></trkpt>
        <trkpt lat="28.6639133" lon="105.6579806"><ele>702.61</ele><time>2026-04-24T22:34:03.000Z</time></trkpt>
        <trkpt lat="28.6640071" lon="105.6580107"><ele>703.85</ele><time>2026-04-24T22:34:13.000Z</time></trkpt>
        <trkpt lat="28.6641029" lon="105.6580512"><ele>705.08</ele><time>2026-04-24T22:34:23.000Z</time></trkpt>
        <trkpt lat="28.6641499" lon="105.6581454"><ele>706.03</ele><time>2026-04-24T22:34:33.000Z</time></trkpt>
        <trkpt lat="28.6641426" lon="105.6582615"><ele>707.83</ele><time>2026-04-24T22:34:43.000Z</time></trkpt>
        <trkpt lat="28.6641229" lon="105.658374"><ele>710.61</ele><time>2026-04-24T22:34:55.000Z</time></trkpt>
        <trkpt lat="28.6641655" lon="105.6584698"><ele>714.09</ele><time>2026-04-24T22:35:19.000Z</time></trkpt>
        <trkpt lat="28.6642514" lon="105.6585194"><ele>717.19</ele><time>2026-04-24T22:36:15.000Z</time></trkpt>
        <trkpt lat="28.6643513" lon="105.6585298"><ele>719.6</ele><time>2026-04-24T22:36:23.000Z</time></trkpt>
        <trkpt lat="28.6644504" lon="105.6584998"><ele>720.25</ele><time>2026-04-24T22:36:31.000Z</time></trkpt>
        <trkpt lat="28.6645505" lon="105.658446"><ele>720.49</ele><time>2026-04-24T22:37:03.000Z</time></trkpt>
        <trkpt lat="28.6646333" lon="105.6583614"><ele>719.93</ele><time>2026-04-24T22:37:17.000Z</time></trkpt>
        <trkpt lat="28.6647028" lon="105.6582639"><ele>720.05</ele><time>2026-04-24T22:37:37.000Z</time></trkpt>
        <trkpt lat="28.6647593" lon="105.6581616"><ele>721.02</ele><time>2026-04-24T22:37:49.000Z</time></trkpt>
        <trkpt lat="28.6648069" lon="105.658065"><ele>722.3</ele><time>2026-04-24T22:38:03.000Z</time></trkpt>
        <trkpt lat="28.6648927" lon="105.6580498"><ele>724.62</ele><time>2026-04-24T22:38:15.000Z</time></trkpt>
        <trkpt lat="28.6649873" lon="105.6580437"><ele>729.34</ele><time>2026-04-24T22:38:23.000Z</time></trkpt>
        <trkpt lat="28.66509" lon="105.6580228"><ele>734.27</ele><time>2026-04-24T22:38:33.000Z</time></trkpt>
        <trkpt lat="28.6651842" lon="105.6579915"><ele>737.94</ele><time>2026-04-24T22:38:43.000Z</time></trkpt>
        <trkpt lat="28.665273" lon="105.6579468"><ele>739.77</ele><time>2026-04-24T22:38:55.000Z</time></trkpt>
        <trkpt lat="28.6653472" lon="105.6578801"><ele>741.2</ele><time>2026-04-24T22:39:09.000Z</time></trkpt>
        <trkpt lat="28.6654138" lon="105.6578048"><ele>742.88</ele><time>2026-04-24T22:39:19.000Z</time></trkpt>
        <trkpt lat="28.6654585" lon="105.6576943"><ele>744.14</ele><time>2026-04-24T22:39:31.000Z</time></trkpt>
        <trkpt lat="28.6655174" lon="105.6576049"><ele>745.07</ele><time>2026-04-24T22:39:45.000Z</time></trkpt>
        <trkpt lat="28.6655956" lon="105.6575483"><ele>745.77</ele><time>2026-04-24T22:39:59.000Z</time></trkpt>
        <trkpt lat="28.6656873" lon="105.6575302"><ele>746.3</ele><time>2026-04-24T22:40:15.000Z</time></trkpt>
        <trkpt lat="28.665788" lon="105.6575159"><ele>746.21</ele><time>2026-04-24T22:40:27.000Z</time></trkpt>
        <trkpt lat="28.6658831" lon="105.6574986"><ele>746.12</ele><time>2026-04-24T22:40:43.000Z</time></trkpt>
        <trkpt lat="28.6659124" lon="105.6575798"><ele>746.37</ele><time>2026-04-24T22:40:59.000Z</time></trkpt>
        <trkpt lat="28.6658736" lon="105.6576901"><ele>746.3</ele><time>2026-04-24T22:41:11.000Z</time></trkpt>
        <trkpt lat="28.6658045" lon="105.6577851"><ele>746.99</ele><time>2026-04-24T22:41:23.000Z</time></trkpt>
        <trkpt lat="28.6657324" lon="105.6578735"><ele>748.58</ele><time>2026-04-24T22:41:33.000Z</time></trkpt>
        <trkpt lat="28.6656551" lon="105.6579618"><ele>750.18</ele><time>2026-04-24T22:41:43.000Z</time></trkpt>
        <trkpt lat="28.665576" lon="105.6580456"><ele>751.39</ele><time>2026-04-24T22:41:53.000Z</time></trkpt>
        <trkpt lat="28.6655078" lon="105.6581401"><ele>752</ele><time>2026-04-24T22:42:03.000Z</time></trkpt>
        <trkpt lat="28.6654585" lon="105.6582386"><ele>752.6</ele><time>2026-04-24T22:42:13.000Z</time></trkpt>
        <trkpt lat="28.6654147" lon="105.6583469"><ele>753.12</ele><time>2026-04-24T22:42:25.000Z</time></trkpt>
        <trkpt lat="28.6653694" lon="105.6584468"><ele>753.32</ele><time>2026-04-24T22:42:51.000Z</time></trkpt>
        <trkpt lat="28.6653251" lon="105.6585518"><ele>754.09</ele><time>2026-04-24T22:43:03.000Z</time></trkpt>
        <trkpt lat="28.6652683" lon="105.6586498"><ele>755.04</ele><time>2026-04-24T22:43:15.000Z</time></trkpt>
        <trkpt lat="28.6652117" lon="105.6587488"><ele>756.01</ele><time>2026-04-24T22:43:27.000Z</time></trkpt>
        <trkpt lat="28.6651795" lon="105.6588546"><ele>756.91</ele><time>2026-04-24T22:43:47.000Z</time></trkpt>
        <trkpt lat="28.6651828" lon="105.6589681"><ele>757.51</ele><time>2026-04-24T22:44:05.000Z</time></trkpt>
        <trkpt lat="28.6651866" lon="105.6590764"><ele>756.47</ele><time>2026-04-24T22:44:17.000Z</time></trkpt>
        <trkpt lat="28.6651917" lon="105.6591811"><ele>754.63</ele><time>2026-04-24T22:44:25.000Z</time></trkpt>
        <trkpt lat="28.6651735" lon="105.6593057"><ele>753.11</ele><time>2026-04-24T22:44:33.000Z</time></trkpt>
        <trkpt lat="28.6651671" lon="105.6594176"><ele>751.56</ele><time>2026-04-24T22:44:41.000Z</time></trkpt>
        <trkpt lat="28.6651171" lon="105.6594802"><ele>749.04</ele><time>2026-04-24T22:44:49.000Z</time></trkpt>
        <trkpt lat="28.6650322" lon="105.6594698"><ele>746.96</ele><time>2026-04-24T22:44:59.000Z</time></trkpt>
        <trkpt lat="28.6651083" lon="105.6595217"><ele>745.51</ele><time>2026-04-24T22:49:13.000Z</time></trkpt>
        <trkpt lat="28.66515" lon="105.6596217"><ele>744.6</ele><time>2026-04-24T22:53:27.000Z</time></trkpt>
        <trkpt lat="28.665155" lon="105.6597317"><ele>743.27</ele><time>2026-04-24T22:53:43.000Z</time></trkpt>
        <trkpt lat="28.6651558" lon="105.6598473"><ele>741.6</ele><time>2026-04-24T22:53:55.000Z</time></trkpt>
        <trkpt lat="28.6651481" lon="105.659973"><ele>739.67</ele><time>2026-04-24T22:54:05.000Z</time></trkpt>
        <trkpt lat="28.6651114" lon="105.6600867"><ele>737.7</ele><time>2026-04-24T22:54:15.000Z</time></trkpt>
        <trkpt lat="28.6650533" lon="105.6601845"><ele>736.02</ele><time>2026-04-24T22:54:29.000Z</time></trkpt>
        <trkpt lat="28.6649953" lon="105.6602731"><ele>735.15</ele><time>2026-04-24T22:54:47.000Z</time></trkpt>
        <trkpt lat="28.6649384" lon="105.6603629"><ele>736.16</ele><time>2026-04-24T22:55:09.000Z</time></trkpt>
        <trkpt lat="28.6648805" lon="105.6604456"><ele>738.46</ele><time>2026-04-24T22:55:29.000Z</time></trkpt>
        <trkpt lat="28.6648365" lon="105.6605424"><ele>742.05</ele><time>2026-04-24T22:55:47.000Z</time></trkpt>
        <trkpt lat="28.6648456" lon="105.6606463"><ele>746.29</ele><time>2026-04-24T22:56:05.000Z</time></trkpt>
        <trkpt lat="28.6648597" lon="105.6607573"><ele>749.43</ele><time>2026-04-24T22:56:17.000Z</time></trkpt>
        <trkpt lat="28.6648524" lon="105.6608654"><ele>749.33</ele><time>2026-04-24T22:56:33.000Z</time></trkpt>
        <trkpt lat="28.6648441" lon="105.6609716"><ele>746.44</ele><time>2026-04-24T22:56:43.000Z</time></trkpt>
        <trkpt lat="28.6648167" lon="105.6610782"><ele>743.37</ele><time>2026-04-24T22:56:51.000Z</time></trkpt>
        <trkpt lat="28.6648113" lon="105.6611536"><ele>740.5</ele><time>2026-04-24T22:57:05.000Z</time></trkpt>
        <trkpt lat="28.6648062" lon="105.6612576"><ele>738.65</ele><time>2026-04-24T22:57:23.000Z</time></trkpt>
        <trkpt lat="28.6648107" lon="105.6613651"><ele>738.67</ele><time>2026-04-24T22:57:37.000Z</time></trkpt>
        <trkpt lat="28.6648159" lon="105.6614781"><ele>739.89</ele><time>2026-04-24T22:57:55.000Z</time></trkpt>
        <trkpt lat="28.6648142" lon="105.6615989"><ele>742.47</ele><time>2026-04-24T22:58:11.000Z</time></trkpt>
        <trkpt lat="28.6647584" lon="105.6616881"><ele>745.8</ele><time>2026-04-24T22:58:23.000Z</time></trkpt>
        <trkpt lat="28.6646842" lon="105.6617613"><ele>748.29</ele><time>2026-04-24T22:58:35.000Z</time></trkpt>
        <trkpt lat="28.6645963" lon="105.6618362"><ele>749.5</ele><time>2026-04-24T22:58:47.000Z</time></trkpt>
        <trkpt lat="28.6645123" lon="105.6619146"><ele>749.46</ele><time>2026-04-24T22:58:55.000Z</time></trkpt>
        <trkpt lat="28.6644255" lon="105.661985"><ele>748.74</ele><time>2026-04-24T22:59:09.000Z</time></trkpt>
        <trkpt lat="28.6643412" lon="105.6620552"><ele>747.48</ele><time>2026-04-24T22:59:19.000Z</time></trkpt>
        <trkpt lat="28.6642572" lon="105.6621158"><ele>746.41</ele><time>2026-04-24T22:59:29.000Z</time></trkpt>
        <trkpt lat="28.6641735" lon="105.6621732"><ele>745.55</ele><time>2026-04-24T22:59:43.000Z</time></trkpt>
        <trkpt lat="28.6640963" lon="105.662249"><ele>745.01</ele><time>2026-04-24T22:59:53.000Z</time></trkpt>
        <trkpt lat="28.6640215" lon="105.6623169"><ele>744.7</ele><time>2026-04-24T23:00:01.000Z</time></trkpt>
        <trkpt lat="28.6639321" lon="105.6623713"><ele>744.49</ele><time>2026-04-24T23:00:11.000Z</time></trkpt>
        <trkpt lat="28.6638497" lon="105.6624258"><ele>744.36</ele><time>2026-04-24T23:00:21.000Z</time></trkpt>
        <trkpt lat="28.663763" lon="105.662486"><ele>743.95</ele><time>2026-04-24T23:00:31.000Z</time></trkpt>
        <trkpt lat="28.6636658" lon="105.6625263"><ele>743.33</ele><time>2026-04-24T23:00:43.000Z</time></trkpt>
        <trkpt lat="28.6635763" lon="105.6625616"><ele>742.88</ele><time>2026-04-24T23:00:57.000Z</time></trkpt>
        <trkpt lat="28.6634953" lon="105.6626087"><ele>742.81</ele><time>2026-04-24T23:01:41.000Z</time></trkpt>
        <trkpt lat="28.6634149" lon="105.662661"><ele>744.48</ele><time>2026-04-24T23:01:59.000Z</time></trkpt>
        <trkpt lat="28.6633279" lon="105.6626986"><ele>746.08</ele><time>2026-04-24T23:02:13.000Z</time></trkpt>
        <trkpt lat="28.6632345" lon="105.6627417"><ele>747.9</ele><time>2026-04-24T23:02:27.000Z</time></trkpt>
        <trkpt lat="28.6631476" lon="105.66279"><ele>750.01</ele><time>2026-04-24T23:02:39.000Z</time></trkpt>
        <trkpt lat="28.6630837" lon="105.6628627"><ele>751.64</ele><time>2026-04-24T23:02:47.000Z</time></trkpt>
        <trkpt lat="28.6630406" lon="105.6629591"><ele>752.87</ele><time>2026-04-24T23:03:01.000Z</time></trkpt>
        <trkpt lat="28.6630062" lon="105.6630676"><ele>753.05</ele><time>2026-04-24T23:03:19.000Z</time></trkpt>
        <trkpt lat="28.6629644" lon="105.6631785"><ele>751.87</ele><time>2026-04-24T23:03:53.000Z</time></trkpt>
        <trkpt lat="28.6629574" lon="105.663286"><ele>748.44</ele><time>2026-04-24T23:04:07.000Z</time></trkpt>
        <trkpt lat="28.6629425" lon="105.6633987"><ele>745.24</ele><time>2026-04-24T23:04:23.000Z</time></trkpt>
        <trkpt lat="28.6629253" lon="105.6635092"><ele>741.31</ele><time>2026-04-24T23:04:35.000Z</time></trkpt>
        <trkpt lat="28.6628626" lon="105.6635933"><ele>737.86</ele><time>2026-04-24T23:04:45.000Z</time></trkpt>
        <trkpt lat="28.6627656" lon="105.6636476"><ele>735.81</ele><time>2026-04-24T23:04:55.000Z</time></trkpt>
        <trkpt lat="28.6626522" lon="105.6636686"><ele>733.87</ele><time>2026-04-24T23:05:05.000Z</time></trkpt>
        <trkpt lat="28.6625446" lon="105.6637086"><ele>732.42</ele><time>2026-04-24T23:05:15.000Z</time></trkpt>
        <trkpt lat="28.6624505" lon="105.6637686"><ele>731.64</ele><time>2026-04-24T23:05:25.000Z</time></trkpt>
        <trkpt lat="28.6623512" lon="105.6638127"><ele>732.48</ele><time>2026-04-24T23:05:33.000Z</time></trkpt>
        <trkpt lat="28.6622471" lon="105.6638516"><ele>733.57</ele><time>2026-04-24T23:05:41.000Z</time></trkpt>
        <trkpt lat="28.6621742" lon="105.6639164"><ele>734.57</ele><time>2026-04-24T23:05:53.000Z</time></trkpt>
        <trkpt lat="28.6621154" lon="105.6640064"><ele>736.48</ele><time>2026-04-24T23:06:03.000Z</time></trkpt>
        <trkpt lat="28.6620979" lon="105.6641156"><ele>737.65</ele><time>2026-04-24T23:06:17.000Z</time></trkpt>
        <trkpt lat="28.6621102" lon="105.6642312"><ele>737.37</ele><time>2026-04-24T23:06:27.000Z</time></trkpt>
        <trkpt lat="28.6621102" lon="105.6643507"><ele>735.75</ele><time>2026-04-24T23:06:37.000Z</time></trkpt>
        <trkpt lat="28.6620536" lon="105.6644526"><ele>733.58</ele><time>2026-04-24T23:06:49.000Z</time></trkpt>
        <trkpt lat="28.6619691" lon="105.6645184"><ele>731.31</ele><time>2026-04-24T23:06:59.000Z</time></trkpt>
        <trkpt lat="28.6619106" lon="105.6645425"><ele>729.15</ele><time>2026-04-24T23:07:03.000Z</time></trkpt>
        <trkpt lat="28.6618332" lon="105.6645712"><ele>727.75</ele><time>2026-04-24T23:07:13.000Z</time></trkpt>
        <trkpt lat="28.6617378" lon="105.6646"><ele>726.83</ele><time>2026-04-24T23:07:21.000Z</time></trkpt>
        <trkpt lat="28.6616456" lon="105.6646267"><ele>725.96</ele><time>2026-04-24T23:07:33.000Z</time></trkpt>
        <trkpt lat="28.6615574" lon="105.6646685"><ele>725.07</ele><time>2026-04-24T23:07:43.000Z</time></trkpt>
        <trkpt lat="28.6614664" lon="105.6646512"><ele>723.71</ele><time>2026-04-24T23:07:51.000Z</time></trkpt>
        <trkpt lat="28.6613756" lon="105.6646268"><ele>722.76</ele><time>2026-04-24T23:08:01.000Z</time></trkpt>
        <trkpt lat="28.6612852" lon="105.6646178"><ele>722.52</ele><time>2026-04-24T23:08:09.000Z</time></trkpt>
        <trkpt lat="28.661185" lon="105.664639"><ele>723.24</ele><time>2026-04-24T23:08:19.000Z</time></trkpt>
        <trkpt lat="28.6610976" lon="105.6646926"><ele>724.04</ele><time>2026-04-24T23:08:29.000Z</time></trkpt>
        <trkpt lat="28.6610354" lon="105.6647729"><ele>724.37</ele><time>2026-04-24T23:08:37.000Z</time></trkpt>
        <trkpt lat="28.6609744" lon="105.6648752"><ele>724.47</ele><time>2026-04-24T23:08:47.000Z</time></trkpt>
        <trkpt lat="28.6609475" lon="105.6649916"><ele>724.57</ele><time>2026-04-24T23:08:57.000Z</time></trkpt>
        <trkpt lat="28.6609308" lon="105.6651192"><ele>724.28</ele><time>2026-04-24T23:09:09.000Z</time></trkpt>
        <trkpt lat="28.6609542" lon="105.6652324"><ele>723.51</ele><time>2026-04-24T23:09:19.000Z</time></trkpt>
        <trkpt lat="28.660923" lon="105.665336"><ele>722.26</ele><time>2026-04-24T23:09:29.000Z</time></trkpt>
        <trkpt lat="28.6608648" lon="105.6654209"><ele>720.69</ele><time>2026-04-24T23:09:37.000Z</time></trkpt>
        <trkpt lat="28.6607731" lon="105.6654869"><ele>719.27</ele><time>2026-04-24T23:09:47.000Z</time></trkpt>
        <trkpt lat="28.660675" lon="105.6655348"><ele>718.34</ele><time>2026-04-24T23:10:01.000Z</time></trkpt>
        <trkpt lat="28.6606027" lon="105.6656078"><ele>718.41</ele><time>2026-04-24T23:10:15.000Z</time></trkpt>
        <trkpt lat="28.6605379" lon="105.6656831"><ele>718.53</ele><time>2026-04-24T23:10:23.000Z</time></trkpt>
        <trkpt lat="28.6604831" lon="105.6657663"><ele>718.48</ele><time>2026-04-24T23:10:35.000Z</time></trkpt>
        <trkpt lat="28.6604112" lon="105.6658409"><ele>718.31</ele><time>2026-04-24T23:10:49.000Z</time></trkpt>
        <trkpt lat="28.6603823" lon="105.6659405"><ele>718.27</ele><time>2026-04-24T23:11:01.000Z</time></trkpt>
        <trkpt lat="28.6603883" lon="105.6658383"><ele>717.03</ele><time>2026-04-24T23:12:59.000Z</time></trkpt>
        <trkpt lat="28.6603967" lon="105.6659433"><ele>717.36</ele><time>2026-04-24T23:22:05.000Z</time></trkpt>
        <trkpt lat="28.660365" lon="105.6660417"><ele>716.43</ele><time>2026-04-24T23:22:27.000Z</time></trkpt>
        <trkpt lat="28.66045" lon="105.6660083"><ele>714.91</ele><time>2026-04-24T23:23:29.000Z</time></trkpt>
        <trkpt lat="28.660575" lon="105.66594"><ele>711.94</ele><time>2026-04-24T23:24:37.000Z</time></trkpt>
        <trkpt lat="28.6606683" lon="105.665915"><ele>706.33</ele><time>2026-04-24T23:25:19.000Z</time></trkpt>
        <trkpt lat="28.6607546" lon="105.6658759"><ele>700.47</ele><time>2026-04-24T23:25:57.000Z</time></trkpt>
        <trkpt lat="28.6608409" lon="105.6658317"><ele>695.15</ele><time>2026-04-24T23:26:27.000Z</time></trkpt>
        <trkpt lat="28.6608934" lon="105.6658937"><ele>690.18</ele><time>2026-04-24T23:27:21.000Z</time></trkpt>
        <trkpt lat="28.66093" lon="105.6659931"><ele>684.12</ele><time>2026-04-24T23:27:51.000Z</time></trkpt>
        <trkpt lat="28.6609087" lon="105.6661061"><ele>679.12</ele><time>2026-04-24T23:28:05.000Z</time></trkpt>
        <trkpt lat="28.6608757" lon="105.6662178"><ele>674.98</ele><time>2026-04-24T23:28:41.000Z</time></trkpt>
        <trkpt lat="28.660924" lon="105.6662193"><ele>670.86</ele><time>2026-04-24T23:29:09.000Z</time></trkpt>
        <trkpt lat="28.6609998" lon="105.6661574"><ele>666.83</ele><time>2026-04-24T23:29:35.000Z</time></trkpt>
        <trkpt lat="28.6610816" lon="105.6660775"><ele>662.35</ele><time>2026-04-24T23:30:05.000Z</time></trkpt>
        <trkpt lat="28.6611762" lon="105.6660197"><ele>657.85</ele><time>2026-04-24T23:30:37.000Z</time></trkpt>
        <trkpt lat="28.6612723" lon="105.6659555"><ele>653.87</ele><time>2026-04-24T23:31:01.000Z</time></trkpt>
        <trkpt lat="28.6613459" lon="105.66588"><ele>650.23</ele><time>2026-04-24T23:31:15.000Z</time></trkpt>
        <trkpt lat="28.6613452" lon="105.665934"><ele>647.12</ele><time>2026-04-24T23:32:07.000Z</time></trkpt>
        <trkpt lat="28.661308" lon="105.6660377"><ele>642.29</ele><time>2026-04-24T23:32:53.000Z</time></trkpt>
        <trkpt lat="28.6612767" lon="105.666215"><ele>637.69</ele><time>2026-04-24T23:34:33.000Z</time></trkpt>
        <trkpt lat="28.6613267" lon="105.6663267"><ele>633.01</ele><time>2026-04-24T23:35:15.000Z</time></trkpt>
        <trkpt lat="28.6613922" lon="105.6664003"><ele>628.79</ele><time>2026-04-24T23:35:59.000Z</time></trkpt>
        <trkpt lat="28.66149" lon="105.6664324"><ele>623.89</ele><time>2026-04-24T23:36:51.000Z</time></trkpt>
        <trkpt lat="28.661578" lon="105.6664814"><ele>618.69</ele><time>2026-04-24T23:37:21.000Z</time></trkpt>
        <trkpt lat="28.6616475" lon="105.6665533"><ele>613.23</ele><time>2026-04-24T23:38:03.000Z</time></trkpt>
        <trkpt lat="28.6617247" lon="105.666618"><ele>607.63</ele><time>2026-04-24T23:38:39.000Z</time></trkpt>
        <trkpt lat="28.6618016" lon="105.6666768"><ele>602.15</ele><time>2026-04-24T23:39:11.000Z</time></trkpt>
        <trkpt lat="28.6618821" lon="105.6667271"><ele>596.71</ele><time>2026-04-24T23:39:41.000Z</time></trkpt>
        <trkpt lat="28.6619389" lon="105.6668047"><ele>591.29</ele><time>2026-04-24T23:40:15.000Z</time></trkpt>
        <trkpt lat="28.6619767" lon="105.6669015"><ele>585.96</ele><time>2026-04-24T23:40:33.000Z</time></trkpt>
        <trkpt lat="28.6620064" lon="105.6670068"><ele>581.63</ele><time>2026-04-24T23:41:01.000Z</time></trkpt>
        <trkpt lat="28.6620698" lon="105.6670923"><ele>577.57</ele><time>2026-04-24T23:41:49.000Z</time></trkpt>
        <trkpt lat="28.6621744" lon="105.6671803"><ele>573.15</ele><time>2026-04-24T23:42:45.000Z</time></trkpt>
        <trkpt lat="28.6622829" lon="105.6672459"><ele>567.32</ele><time>2026-04-24T23:43:35.000Z</time></trkpt>
        <trkpt lat="28.66239" lon="105.66729"><ele>560.9</ele><time>2026-04-24T23:44:35.000Z</time></trkpt>
        <trkpt lat="28.66246" lon="105.6673733"><ele>555.48</ele><time>2026-04-24T23:45:03.000Z</time></trkpt>
        <trkpt lat="28.6625483" lon="105.6674059"><ele>550.29</ele><time>2026-04-24T23:45:43.000Z</time></trkpt>
        <trkpt lat="28.6626039" lon="105.6674925"><ele>544.66</ele><time>2026-04-24T23:46:43.000Z</time></trkpt>
        <trkpt lat="28.6626606" lon="105.6675807"><ele>537.62</ele><time>2026-04-24T23:47:25.000Z</time></trkpt>
        <trkpt lat="28.6627072" lon="105.6676961"><ele>531.33</ele><time>2026-04-24T23:48:11.000Z</time></trkpt>
        <trkpt lat="28.6627769" lon="105.667833"><ele>525.38</ele><time>2026-04-24T23:48:57.000Z</time></trkpt>
        <trkpt lat="28.6628483" lon="105.6679267"><ele>519.07</ele><time>2026-04-24T23:50:11.000Z</time></trkpt>
        <trkpt lat="28.6629067" lon="105.6680067"><ele>512.03</ele><time>2026-04-24T23:51:05.000Z</time></trkpt>
        <trkpt lat="28.6629805" lon="105.6680697"><ele>506.51</ele><time>2026-04-24T23:51:33.000Z</time></trkpt>
        <trkpt lat="28.6630283" lon="105.6681583"><ele>501.6</ele><time>2026-04-24T23:55:47.000Z</time></trkpt>
        <trkpt lat="28.6631067" lon="105.66821"><ele>493.69</ele><time>2026-04-24T23:56:19.000Z</time></trkpt>
        <trkpt lat="28.6632217" lon="105.6682447"><ele>486.72</ele><time>2026-04-24T23:57:01.000Z</time></trkpt>
        <trkpt lat="28.6632505" lon="105.6683408"><ele>481.08</ele><time>2026-04-24T23:57:13.000Z</time></trkpt>
        <trkpt lat="28.6632439" lon="105.6684535"><ele>476.4</ele><time>2026-04-24T23:57:35.000Z</time></trkpt>
        <trkpt lat="28.6632928" lon="105.668533"><ele>470.29</ele><time>2026-04-24T23:57:45.000Z</time></trkpt>
        <trkpt lat="28.6633658" lon="105.6685918"><ele>465.48</ele><time>2026-04-24T23:58:01.000Z</time></trkpt>
        <trkpt lat="28.663389" lon="105.6686835"><ele>461.62</ele><time>2026-04-24T23:58:23.000Z</time></trkpt>
        <trkpt lat="28.6634111" lon="105.6687925"><ele>457.01</ele><time>2026-04-24T23:58:39.000Z</time></trkpt>
        <trkpt lat="28.6634532" lon="105.6688867"><ele>453.05</ele><time>2026-04-24T23:59:03.000Z</time></trkpt>
        <trkpt lat="28.6634762" lon="105.6689878"><ele>449.76</ele><time>2026-04-24T23:59:13.000Z</time></trkpt>
        <trkpt lat="28.6634816" lon="105.6690913"><ele>447.88</ele><time>2026-04-24T23:59:33.000Z</time></trkpt>
        <trkpt lat="28.6635113" lon="105.6691866"><ele>446.04</ele><time>2026-04-25T00:00:29.000Z</time></trkpt>
        <trkpt lat="28.6635338" lon="105.6692887"><ele>443.27</ele><time>2026-04-25T00:01:23.000Z</time></trkpt>
        <trkpt lat="28.6635492" lon="105.6693946"><ele>438.81</ele><time>2026-04-25T00:01:53.000Z</time></trkpt>
        <trkpt lat="28.6636085" lon="105.6694793"><ele>434.25</ele><time>2026-04-25T00:02:19.000Z</time></trkpt>
        <trkpt lat="28.6636792" lon="105.6695496"><ele>430.57</ele><time>2026-04-25T00:02:45.000Z</time></trkpt>
        <trkpt lat="28.6637344" lon="105.6696319"><ele>426.54</ele><time>2026-04-25T00:02:57.000Z</time></trkpt>
        <trkpt lat="28.6637872" lon="105.6697224"><ele>423.34</ele><time>2026-04-25T00:03:09.000Z</time></trkpt>
        <trkpt lat="28.6638489" lon="105.6698147"><ele>421.39</ele><time>2026-04-25T00:03:23.000Z</time></trkpt>
        <trkpt lat="28.6638803" lon="105.6699235"><ele>419.46</ele><time>2026-04-25T00:03:33.000Z</time></trkpt>
        <trkpt lat="28.6638901" lon="105.6700355"><ele>417.75</ele><time>2026-04-25T00:03:43.000Z</time></trkpt>
        <trkpt lat="28.6638896" lon="105.6701476"><ele>415.92</ele><time>2026-04-25T00:04:01.000Z</time></trkpt>
        <trkpt lat="28.6639162" lon="105.6702477"><ele>414.24</ele><time>2026-04-25T00:04:25.000Z</time></trkpt>
        <trkpt lat="28.6639604" lon="105.670348"><ele>412.41</ele><time>2026-04-25T00:04:45.000Z</time></trkpt>
        <trkpt lat="28.6640018" lon="105.6704564"><ele>410.52</ele><time>2026-04-25T00:05:13.000Z</time></trkpt>
        <trkpt lat="28.6640332" lon="105.6705667"><ele>407.93</ele><time>2026-04-25T00:05:25.000Z</time></trkpt>
        <trkpt lat="28.6640818" lon="105.6706648"><ele>405.33</ele><time>2026-04-25T00:05:37.000Z</time></trkpt>
        <trkpt lat="28.6641282" lon="105.670757"><ele>402.78</ele><time>2026-04-25T00:05:49.000Z</time></trkpt>
        <trkpt lat="28.6641716" lon="105.6708475"><ele>400.21</ele><time>2026-04-25T00:06:05.000Z</time></trkpt>
        <trkpt lat="28.6642175" lon="105.670938"><ele>397.8</ele><time>2026-04-25T00:06:41.000Z</time></trkpt>
        <trkpt lat="28.6642468" lon="105.6710389"><ele>395.13</ele><time>2026-04-25T00:07:03.000Z</time></trkpt>
        <trkpt lat="28.6642673" lon="105.6711439"><ele>392.75</ele><time>2026-04-25T00:07:25.000Z</time></trkpt>
        <trkpt lat="28.6642654" lon="105.6712549"><ele>389.85</ele><time>2026-04-25T00:07:53.000Z</time></trkpt>
        <trkpt lat="28.6642638" lon="105.6713613"><ele>386</ele><time>2026-04-25T00:08:17.000Z</time></trkpt>
        <trkpt lat="28.6642464" lon="105.6714706"><ele>381.78</ele><time>2026-04-25T00:08:35.000Z</time></trkpt>
        <trkpt lat="28.6642731" lon="105.6715695"><ele>378.01</ele><time>2026-04-25T00:09:11.000Z</time></trkpt>
        <trkpt lat="28.664335" lon="105.6716967"><ele>374.65</ele><time>2026-04-25T00:11:47.000Z</time></trkpt>
        <trkpt lat="28.6643617" lon="105.6718"><ele>369.59</ele><time>2026-04-25T00:12:07.000Z</time></trkpt>
        <trkpt lat="28.6643855" lon="105.6719033"><ele>365.64</ele><time>2026-04-25T00:12:33.000Z</time></trkpt>
        <trkpt lat="28.6644483" lon="105.6719767"><ele>361.32</ele><time>2026-04-25T00:18:19.000Z</time></trkpt>
        <trkpt lat="28.66449" lon="105.6720733"><ele>358.17</ele><time>2026-04-25T00:18:41.000Z</time></trkpt>
        <trkpt lat="28.6645373" lon="105.6721686"><ele>355</ele><time>2026-04-25T00:19:03.000Z</time></trkpt>
        <trkpt lat="28.6646011" lon="105.6722494"><ele>351.43</ele><time>2026-04-25T00:19:33.000Z</time></trkpt>
        <trkpt lat="28.6646587" lon="105.6723358"><ele>347.46</ele><time>2026-04-25T00:20:03.000Z</time></trkpt>
        <trkpt lat="28.6647398" lon="105.6723784"><ele>343.86</ele><time>2026-04-25T00:20:37.000Z</time></trkpt>
        <trkpt lat="28.6648056" lon="105.6724475"><ele>340.05</ele><time>2026-04-25T00:21:03.000Z</time></trkpt>
        <trkpt lat="28.6648493" lon="105.6725464"><ele>336.16</ele><time>2026-04-25T00:21:45.000Z</time></trkpt>
        <trkpt lat="28.6649075" lon="105.6726497"><ele>331.92</ele><time>2026-04-25T00:22:19.000Z</time></trkpt>
        <trkpt lat="28.6649536" lon="105.6727518"><ele>329.07</ele><time>2026-04-25T00:22:35.000Z</time></trkpt>
        <trkpt lat="28.6650089" lon="105.6728459"><ele>326.63</ele><time>2026-04-25T00:22:49.000Z</time></trkpt>
        <trkpt lat="28.6650656" lon="105.6729341"><ele>324.38</ele><time>2026-04-25T00:22:59.000Z</time></trkpt>
        <trkpt lat="28.6650751" lon="105.6730441"><ele>322.8</ele><time>2026-04-25T00:23:15.000Z</time></trkpt>
        <trkpt lat="28.6651159" lon="105.6731324"><ele>321.29</ele><time>2026-04-25T00:23:31.000Z</time></trkpt>
        <trkpt lat="28.665182" lon="105.6732218"><ele>319.79</ele><time>2026-04-25T00:23:41.000Z</time></trkpt>
        <trkpt lat="28.6652419" lon="105.673311"><ele>318.46</ele><time>2026-04-25T00:23:59.000Z</time></trkpt>
        <trkpt lat="28.665293" lon="105.6734142"><ele>316.54</ele><time>2026-04-25T00:24:11.000Z</time></trkpt>
        <trkpt lat="28.665329" lon="105.6735202"><ele>314.5</ele><time>2026-04-25T00:24:29.000Z</time></trkpt>
        <trkpt lat="28.6653535" lon="105.6736278"><ele>312.87</ele><time>2026-04-25T00:24:45.000Z</time></trkpt>
        <trkpt lat="28.665426" lon="105.6736666"><ele>311.42</ele><time>2026-04-25T00:24:55.000Z</time></trkpt>
        <trkpt lat="28.6655248" lon="105.6736999"><ele>310.46</ele><time>2026-04-25T00:25:09.000Z</time></trkpt>
        <trkpt lat="28.6656048" lon="105.6737637"><ele>309.4</ele><time>2026-04-25T00:25:19.000Z</time></trkpt>
        <trkpt lat="28.6656692" lon="105.6738494"><ele>308.76</ele><time>2026-04-25T00:25:29.000Z</time></trkpt>
        <trkpt lat="28.6657388" lon="105.6739265"><ele>307.87</ele><time>2026-04-25T00:25:39.000Z</time></trkpt>
        <trkpt lat="28.6658048" lon="105.6740077"><ele>306.16</ele><time>2026-04-25T00:25:53.000Z</time></trkpt>
        <trkpt lat="28.6658683" lon="105.6741013"><ele>303.86</ele><time>2026-04-25T00:26:11.000Z</time></trkpt>
        <trkpt lat="28.6659536" lon="105.674114"><ele>301.08</ele><time>2026-04-25T00:26:21.000Z</time></trkpt>
        <trkpt lat="28.6660159" lon="105.6740335"><ele>299.24</ele><time>2026-04-25T00:26:33.000Z</time></trkpt>
        <trkpt lat="28.6659986" lon="105.673928"><ele>298.4</ele><time>2026-04-25T00:26:43.000Z</time></trkpt>
        <trkpt lat="28.6659504" lon="105.6738219"><ele>298.45</ele><time>2026-04-25T00:26:51.000Z</time></trkpt>
        <trkpt lat="28.6659044" lon="105.6737131"><ele>298.47</ele><time>2026-04-25T00:27:01.000Z</time></trkpt>
        <trkpt lat="28.6658434" lon="105.6736088"><ele>297.79</ele><time>2026-04-25T00:27:09.000Z</time></trkpt>
        <trkpt lat="28.6657991" lon="105.6735089"><ele>296.51</ele><time>2026-04-25T00:27:17.000Z</time></trkpt>
        <trkpt lat="28.6657765" lon="105.6734024"><ele>294.01</ele><time>2026-04-25T00:27:33.000Z</time></trkpt>
        <trkpt lat="28.6657871" lon="105.6732925"><ele>291.25</ele><time>2026-04-25T00:27:43.000Z</time></trkpt>
        <trkpt lat="28.6658349" lon="105.6731991"><ele>289.51</ele><time>2026-04-25T00:27:51.000Z</time></trkpt>
        <trkpt lat="28.6659077" lon="105.6731298"><ele>288.9</ele><time>2026-04-25T00:28:01.000Z</time></trkpt>
        <trkpt lat="28.6659876" lon="105.6730636"><ele>288.6</ele><time>2026-04-25T00:28:11.000Z</time></trkpt>
        <trkpt lat="28.6660732" lon="105.6730005"><ele>287.4</ele><time>2026-04-25T00:28:23.000Z</time></trkpt>
        <trkpt lat="28.6661451" lon="105.6729276"><ele>286.88</ele><time>2026-04-25T00:28:39.000Z</time></trkpt>
        <trkpt lat="28.666228" lon="105.6728803"><ele>287.84</ele><time>2026-04-25T00:28:49.000Z</time></trkpt>
        <trkpt lat="28.6663113" lon="105.6728301"><ele>288.38</ele><time>2026-04-25T00:29:05.000Z</time></trkpt>
        <trkpt lat="28.6663903" lon="105.6727749"><ele>289.72</ele><time>2026-04-25T00:29:23.000Z</time></trkpt>
        <trkpt lat="28.6664637" lon="105.6727086"><ele>292.42</ele><time>2026-04-25T00:29:43.000Z</time></trkpt>
        <trkpt lat="28.6665501" lon="105.6726583"><ele>294.86</ele><time>2026-04-25T00:29:59.000Z</time></trkpt>
        <trkpt lat="28.6666491" lon="105.6726457"><ele>296.3</ele><time>2026-04-25T00:30:15.000Z</time></trkpt>
        <trkpt lat="28.6667397" lon="105.6726927"><ele>297.81</ele><time>2026-04-25T00:30:29.000Z</time></trkpt>
        <trkpt lat="28.6668099" lon="105.6727741"><ele>299.14</ele><time>2026-04-25T00:30:41.000Z</time></trkpt>
        <trkpt lat="28.6668551" lon="105.6728799"><ele>299.77</ele><time>2026-04-25T00:30:51.000Z</time></trkpt>
        <trkpt lat="28.6668922" lon="105.672999"><ele>300.38</ele><time>2026-04-25T00:31:05.000Z</time></trkpt>
        <trkpt lat="28.6669547" lon="105.6730906"><ele>300.3</ele><time>2026-04-25T00:31:17.000Z</time></trkpt>
        <trkpt lat="28.6670304" lon="105.6731708"><ele>299.79</ele><time>2026-04-25T00:31:29.000Z</time></trkpt>
        <trkpt lat="28.6671115" lon="105.6732444"><ele>298.89</ele><time>2026-04-25T00:31:41.000Z</time></trkpt>
        <trkpt lat="28.6672011" lon="105.6732999"><ele>298.21</ele><time>2026-04-25T00:31:53.000Z</time></trkpt>
        <trkpt lat="28.6672992" lon="105.6733459"><ele>297</ele><time>2026-04-25T00:32:05.000Z</time></trkpt>
        <trkpt lat="28.6673833" lon="105.6734023"><ele>295.88</ele><time>2026-04-25T00:32:15.000Z</time></trkpt>
        <trkpt lat="28.6674299" lon="105.6734949"><ele>294.56</ele><time>2026-04-25T00:32:25.000Z</time></trkpt>
        <trkpt lat="28.6674443" lon="105.673606"><ele>293.71</ele><time>2026-04-25T00:32:35.000Z</time></trkpt>
        <trkpt lat="28.6674417" lon="105.6737269"><ele>293.32</ele><time>2026-04-25T00:32:45.000Z</time></trkpt>
        <trkpt lat="28.6674733" lon="105.6738255"><ele>292.8</ele><time>2026-04-25T00:32:55.000Z</time></trkpt>
        <trkpt lat="28.667565" lon="105.6738505"><ele>292.5</ele><time>2026-04-25T00:33:05.000Z</time></trkpt>
        <trkpt lat="28.6676631" lon="105.6738214"><ele>291.72</ele><time>2026-04-25T00:33:15.000Z</time></trkpt>
        <trkpt lat="28.6677586" lon="105.673758"><ele>290.68</ele><time>2026-04-25T00:33:27.000Z</time></trkpt>
        <trkpt lat="28.6678172" lon="105.6736623"><ele>289.74</ele><time>2026-04-25T00:33:37.000Z</time></trkpt>
        <trkpt lat="28.6678624" lon="105.6735455"><ele>288.99</ele><time>2026-04-25T00:33:47.000Z</time></trkpt>
        <trkpt lat="28.667903" lon="105.6734404"><ele>288.65</ele><time>2026-04-25T00:33:57.000Z</time></trkpt>
        <trkpt lat="28.6679635" lon="105.6733542"><ele>288.59</ele><time>2026-04-25T00:34:07.000Z</time></trkpt>
        <trkpt lat="28.6680448" lon="105.673286"><ele>287.9</ele><time>2026-04-25T00:34:17.000Z</time></trkpt>
        <trkpt lat="28.6681319" lon="105.6732328"><ele>287.21</ele><time>2026-04-25T00:34:27.000Z</time></trkpt>
        <trkpt lat="28.6682121" lon="105.6731564"><ele>286.73</ele><time>2026-04-25T00:34:37.000Z</time></trkpt>
        <trkpt lat="28.6682801" lon="105.6730737"><ele>285.69</ele><time>2026-04-25T00:34:45.000Z</time></trkpt>
        <trkpt lat="28.6683384" lon="105.6729817"><ele>285.69</ele><time>2026-04-25T00:34:55.000Z</time></trkpt>
        <trkpt lat="28.6683962" lon="105.6728807"><ele>285.95</ele><time>2026-04-25T00:35:05.000Z</time></trkpt>
        <trkpt lat="28.6684709" lon="105.6727922"><ele>285.76</ele><time>2026-04-25T00:35:15.000Z</time></trkpt>
        <trkpt lat="28.6685598" lon="105.6727819"><ele>285.6</ele><time>2026-04-25T00:35:27.000Z</time></trkpt>
        <trkpt lat="28.6686181" lon="105.6728625"><ele>285.73</ele><time>2026-04-25T00:35:37.000Z</time></trkpt>
        <trkpt lat="28.6686692" lon="105.672967"><ele>285.59</ele><time>2026-04-25T00:35:45.000Z</time></trkpt>
        <trkpt lat="28.6687449" lon="105.6730629"><ele>285.25</ele><time>2026-04-25T00:35:55.000Z</time></trkpt>
        <trkpt lat="28.6688382" lon="105.6731317"><ele>285.44</ele><time>2026-04-25T00:36:07.000Z</time></trkpt>
        <trkpt lat="28.6689069" lon="105.6730881"><ele>285.98</ele><time>2026-04-25T00:36:21.000Z</time></trkpt>
        <trkpt lat="28.6688889" lon="105.6729799"><ele>285.95</ele><time>2026-04-25T00:36:31.000Z</time></trkpt>
        <trkpt lat="28.6688774" lon="105.672857"><ele>285.67</ele><time>2026-04-25T00:36:39.000Z</time></trkpt>
        <trkpt lat="28.6689072" lon="105.6727342"><ele>285.38</ele><time>2026-04-25T00:36:51.000Z</time></trkpt>
        <trkpt lat="28.6689731" lon="105.6726411"><ele>285</ele><time>2026-04-25T00:37:03.000Z</time></trkpt>
        <trkpt lat="28.6690675" lon="105.6726112"><ele>284.05</ele><time>2026-04-25T00:37:13.000Z</time></trkpt>
        <trkpt lat="28.6691597" lon="105.6725703"><ele>283.69</ele><time>2026-04-25T00:37:31.000Z</time></trkpt>
        <trkpt lat="28.6692634" lon="105.6725604"><ele>284.04</ele><time>2026-04-25T00:38:13.000Z</time></trkpt>
        <trkpt lat="28.6693509" lon="105.6726082"><ele>284.71</ele><time>2026-04-25T00:38:23.000Z</time></trkpt>
        <trkpt lat="28.6694312" lon="105.6726871"><ele>284.71</ele><time>2026-04-25T00:38:33.000Z</time></trkpt>
        <trkpt lat="28.6695028" lon="105.6727805"><ele>284.66</ele><time>2026-04-25T00:38:43.000Z</time></trkpt>
        <trkpt lat="28.6695741" lon="105.6728601"><ele>284.89</ele><time>2026-04-25T00:38:51.000Z</time></trkpt>
        <trkpt lat="28.6696598" lon="105.6729129"><ele>285.2</ele><time>2026-04-25T00:39:01.000Z</time></trkpt>
        <trkpt lat="28.6697475" lon="105.6729564"><ele>285.33</ele><time>2026-04-25T00:39:09.000Z</time></trkpt>
        <trkpt lat="28.6698078" lon="105.6729787"><ele>285.27</ele><time>2026-04-25T00:39:13.000Z</time></trkpt>
        <trkpt lat="28.6698876" lon="105.6730307"><ele>285.5</ele><time>2026-04-25T00:39:23.000Z</time></trkpt>
        <trkpt lat="28.6699672" lon="105.6730952"><ele>285.71</ele><time>2026-04-25T00:39:33.000Z</time></trkpt>
        <trkpt lat="28.670045" lon="105.6731636"><ele>285.92</ele><time>2026-04-25T00:39:43.000Z</time></trkpt>
        <trkpt lat="28.6701207" lon="105.6732374"><ele>285.87</ele><time>2026-04-25T00:39:53.000Z</time></trkpt>
        <trkpt lat="28.6702019" lon="105.6732986"><ele>285.84</ele><time>2026-04-25T00:40:01.000Z</time></trkpt>
        <trkpt lat="28.6702877" lon="105.6733469"><ele>285.65</ele><time>2026-04-25T00:40:11.000Z</time></trkpt>
        <trkpt lat="28.6703937" lon="105.6733421"><ele>285.16</ele><time>2026-04-25T00:40:21.000Z</time></trkpt>
        <trkpt lat="28.6704993" lon="105.6733337"><ele>283.71</ele><time>2026-04-25T00:40:31.000Z</time></trkpt>
        <trkpt lat="28.6706121" lon="105.6733236"><ele>281.77</ele><time>2026-04-25T00:40:41.000Z</time></trkpt>
        <trkpt lat="28.6707119" lon="105.6733149"><ele>280.11</ele><time>2026-04-25T00:40:49.000Z</time></trkpt>
        <trkpt lat="28.6708137" lon="105.6733153"><ele>278.6</ele><time>2026-04-25T00:40:59.000Z</time></trkpt>
        <trkpt lat="28.6709115" lon="105.6733435"><ele>277.22</ele><time>2026-04-25T00:41:09.000Z</time></trkpt>
        <trkpt lat="28.6710117" lon="105.6733777"><ele>275.88</ele><time>2026-04-25T00:41:19.000Z</time></trkpt>
        <trkpt lat="28.671118" lon="105.6733976"><ele>275.16</ele><time>2026-04-25T00:41:29.000Z</time></trkpt>
        <trkpt lat="28.6712178" lon="105.6734085"><ele>275.43</ele><time>2026-04-25T00:41:39.000Z</time></trkpt>
        <trkpt lat="28.6713173" lon="105.6733937"><ele>276.71</ele><time>2026-04-25T00:41:49.000Z</time></trkpt>
        <trkpt lat="28.671407" lon="105.6733488"><ele>278.08</ele><time>2026-04-25T00:41:59.000Z</time></trkpt>
        <trkpt lat="28.6714881" lon="105.6732758"><ele>277.66</ele><time>2026-04-25T00:42:07.000Z</time></trkpt>
        <trkpt lat="28.6715817" lon="105.6732215"><ele>277.59</ele><time>2026-04-25T00:42:19.000Z</time></trkpt>
        <trkpt lat="28.6716669" lon="105.6731718"><ele>278.37</ele><time>2026-04-25T00:42:29.000Z</time></trkpt>
        <trkpt lat="28.6717563" lon="105.673108"><ele>279.16</ele><time>2026-04-25T00:42:39.000Z</time></trkpt>
        <trkpt lat="28.6718425" lon="105.673048"><ele>279.26</ele><time>2026-04-25T00:42:49.000Z</time></trkpt>
        <trkpt lat="28.671935" lon="105.672975"><ele>278.72</ele><time>2026-04-25T00:42:59.000Z</time></trkpt>
        <trkpt lat="28.6720375" lon="105.67294"><ele>278.37</ele><time>2026-04-25T00:43:09.000Z</time></trkpt>
        <trkpt lat="28.6721396" lon="105.6729687"><ele>278.21</ele><time>2026-04-25T00:43:19.000Z</time></trkpt>
        <trkpt lat="28.6722283" lon="105.6730139"><ele>277.6</ele><time>2026-04-25T00:43:31.000Z</time></trkpt>
        <trkpt lat="28.6723018" lon="105.6729831"><ele>276.66</ele><time>2026-04-25T00:43:45.000Z</time></trkpt>
        <trkpt lat="28.672359" lon="105.6729001"><ele>275.73</ele><time>2026-04-25T00:43:53.000Z</time></trkpt>
        <trkpt lat="28.6724126" lon="105.6727943"><ele>274.81</ele><time>2026-04-25T00:44:01.000Z</time></trkpt>
        <trkpt lat="28.6724489" lon="105.6727493"><ele>273.86</ele><time>2026-04-25T00:44:11.000Z</time></trkpt>
        <trkpt lat="28.6725074" lon="105.6726712"><ele>272.85</ele><time>2026-04-25T00:44:21.000Z</time></trkpt>
        <trkpt lat="28.6725429" lon="105.6725757"><ele>273.51</ele><time>2026-04-25T00:44:27.000Z</time></trkpt>
        <trkpt lat="28.6725796" lon="105.6724636"><ele>274.33</ele><time>2026-04-25T00:44:33.000Z</time></trkpt>
        <trkpt lat="28.6726115" lon="105.672352"><ele>276.29</ele><time>2026-04-25T00:44:41.000Z</time></trkpt>
        <trkpt lat="28.6726296" lon="105.6722222"><ele>279.87</ele><time>2026-04-25T00:44:51.000Z</time></trkpt>
        <trkpt lat="28.6726694" lon="105.6721204"><ele>283.02</ele><time>2026-04-25T00:44:59.000Z</time></trkpt>
        <trkpt lat="28.6727133" lon="105.6720203"><ele>285.46</ele><time>2026-04-25T00:45:09.000Z</time></trkpt>
        <trkpt lat="28.6727467" lon="105.6719089"><ele>286.43</ele><time>2026-04-25T00:45:19.000Z</time></trkpt>
        <trkpt lat="28.6727819" lon="105.671794"><ele>285.73</ele><time>2026-04-25T00:45:29.000Z</time></trkpt>
        <trkpt lat="28.6728369" lon="105.6716907"><ele>285.07</ele><time>2026-04-25T00:45:39.000Z</time></trkpt>
        <trkpt lat="28.6729105" lon="105.6716058"><ele>284.82</ele><time>2026-04-25T00:45:47.000Z</time></trkpt>
        <trkpt lat="28.6730047" lon="105.6715398"><ele>284.3</ele><time>2026-04-25T00:45:59.000Z</time></trkpt>
        <trkpt lat="28.6731113" lon="105.6714907"><ele>281.76</ele><time>2026-04-25T00:46:07.000Z</time></trkpt>
        <trkpt lat="28.6732153" lon="105.6714485"><ele>278.94</ele><time>2026-04-25T00:46:15.000Z</time></trkpt>
        <trkpt lat="28.6733054" lon="105.6714083"><ele>276.34</ele><time>2026-04-25T00:46:21.000Z</time></trkpt>
        <trkpt lat="28.673386" lon="105.6713588"><ele>274</ele><time>2026-04-25T00:46:27.000Z</time></trkpt>
        <trkpt lat="28.6734733" lon="105.6712875"><ele>271.85</ele><time>2026-04-25T00:46:35.000Z</time></trkpt>
        <trkpt lat="28.6735589" lon="105.6712032"><ele>269.98</ele><time>2026-04-25T00:46:43.000Z</time></trkpt>
        <trkpt lat="28.6736338" lon="105.6711055"><ele>268.18</ele><time>2026-04-25T00:46:51.000Z</time></trkpt>
        <trkpt lat="28.6737125" lon="105.6710092"><ele>266.68</ele><time>2026-04-25T00:46:59.000Z</time></trkpt>
        <trkpt lat="28.6737781" lon="105.6709212"><ele>265.49</ele><time>2026-04-25T00:47:05.000Z</time></trkpt>
        <trkpt lat="28.6738428" lon="105.6708356"><ele>264.55</ele><time>2026-04-25T00:47:11.000Z</time></trkpt>
        <trkpt lat="28.673908" lon="105.6707383"><ele>263.62</ele><time>2026-04-25T00:47:19.000Z</time></trkpt>
        <trkpt lat="28.6739738" lon="105.6706453"><ele>262.54</ele><time>2026-04-25T00:47:27.000Z</time></trkpt>
        <trkpt lat="28.6740351" lon="105.6705507"><ele>261.62</ele><time>2026-04-25T00:47:35.000Z</time></trkpt>
        <trkpt lat="28.674096" lon="105.6704631"><ele>260.88</ele><time>2026-04-25T00:47:41.000Z</time></trkpt>
        <trkpt lat="28.6741522" lon="105.6703781"><ele>260.29</ele><time>2026-04-25T00:47:47.000Z</time></trkpt>
        <trkpt lat="28.6742167" lon="105.670285"><ele>260.08</ele><time>2026-04-25T00:47:55.000Z</time></trkpt>
        <trkpt lat="28.6742834" lon="105.6702012"><ele>259.96</ele><time>2026-04-25T00:48:01.000Z</time></trkpt>
        <trkpt lat="28.6743582" lon="105.6701322"><ele>259.93</ele><time>2026-04-25T00:48:07.000Z</time></trkpt>
        <trkpt lat="28.6744393" lon="105.6700534"><ele>260.22</ele><time>2026-04-25T00:48:15.000Z</time></trkpt>
        <trkpt lat="28.6745135" lon="105.6699686"><ele>261.03</ele><time>2026-04-25T00:48:21.000Z</time></trkpt>
        <trkpt lat="28.6745945" lon="105.669873"><ele>261.62</ele><time>2026-04-25T00:48:29.000Z</time></trkpt>
        <trkpt lat="28.6746755" lon="105.6697774"><ele>261.78</ele><time>2026-04-25T00:48:37.000Z</time></trkpt>
        <trkpt lat="28.6747649" lon="105.669694"><ele>262.01</ele><time>2026-04-25T00:48:45.000Z</time></trkpt>
        <trkpt lat="28.6748635" lon="105.6696266"><ele>262.05</ele><time>2026-04-25T00:48:53.000Z</time></trkpt>
        <trkpt lat="28.6749661" lon="105.6695659"><ele>262.2</ele><time>2026-04-25T00:49:01.000Z</time></trkpt>
        <trkpt lat="28.6750644" lon="105.6695065"><ele>262.59</ele><time>2026-04-25T00:49:09.000Z</time></trkpt>
        <trkpt lat="28.6751667" lon="105.6694679"><ele>263.02</ele><time>2026-04-25T00:49:15.000Z</time></trkpt>
        <trkpt lat="28.6752566" lon="105.6694276"><ele>263.53</ele><time>2026-04-25T00:49:21.000Z</time></trkpt>
        <trkpt lat="28.6753491" lon="105.6693839"><ele>264.25</ele><time>2026-04-25T00:49:29.000Z</time></trkpt>
        <trkpt lat="28.6754433" lon="105.6693785"><ele>265.35</ele><time>2026-04-25T00:49:37.000Z</time></trkpt>
        <trkpt lat="28.6755118" lon="105.6694694"><ele>266.27</ele><time>2026-04-25T00:49:47.000Z</time></trkpt>
        <trkpt lat="28.6755634" lon="105.6695721"><ele>267.23</ele><time>2026-04-25T00:49:53.000Z</time></trkpt>
        <trkpt lat="28.6756303" lon="105.6696815"><ele>268.46</ele><time>2026-04-25T00:50:01.000Z</time></trkpt>
        <trkpt lat="28.6756303" lon="105.6696815"><ele>268.46</ele><time>2026-04-25T00:50:03.000Z</time></trkpt>
      </trkseg>
  </trk>
</gpx>